Time,TemperatureF,DewpointF,PressureIn,WindDirection,WindDirectionDegrees,WindSpeedMPH,WindSpeedGustMPH,Humidity,HourlyPrecipIn,Conditions,Clouds,dailyrainin,SoftwareType,DateUTC
2013-02-04 00:00:00,54.5,25.2,30.02,ENE,72,0.0,0.0,32,0.00,,,0.00,Wunderground v.1.15,2013-02-04 05:00:00,
2013-02-04 00:03:00,54.5,22.0,30.02,ENE,72,0.0,0.0,28,0.00,,,0.00,Wunderground v.1.15,2013-02-04 05:03:00,
2013-02-04 00:05:00,54.5,22.0,30.02,ENE,72,0.0,0.0,28,0.00,,,0.00,Wunderground v.1.15,2013-02-04 05:05:00,
2013-02-04 00:06:00,54.5,22.0,30.02,ENE,72,0.0,0.0,28,0.00,,,0.00,Wunderground v.1.15,2013-02-04 05:06:00,
2013-02-04 00:07:00,54.4,21.9,30.02,ENE,72,0.0,0.0,28,0.00,,,0.00,Wunderground v.1.15,2013-02-04 05:07:00,
2013-02-04 00:10:00,54.4,21.9,30.02,ENE,72,0.0,0.0,28,0.00,,,0.00,Wunderground v.1.15,2013-02-04 05:10:00,
2013-02-04 00:11:00,54.4,21.9,30.02,ENE,72,0.0,0.0,28,0.00,,,0.00,Wunderground v.1.15,2013-02-04 05:11:00,
2013-02-04 00:12:00,54.4,21.9,30.02,ENE,72,0.0,0.0,28,0.00,,,0.00,Wunderground v.1.15,2013-02-04 05:12:00,
2013-02-04 00:16:00,54.4,21.9,30.01,ENE,72,0.0,0.0,28,0.00,,,0.00,Wunderground v.1.15,2013-02-04 05:16:00,
2013-02-04 00:17:00,54.4,21.9,30.01,ENE,72,0.0,0.0,28,0.00,,,0.00,Wunderground v.1.15,2013-02-04 05:17:00,
2013-02-04 00:18:00,54.4,21.9,30.01,ENE,72,0.0,0.0,28,0.00,,,0.00,Wunderground v.1.15,2013-02-04 05:18:00,
2013-02-04 00:21:00,54.4,21.9,30.01,ENE,72,0.0,0.0,28,0.00,,,0.00,Wunderground v.1.15,2013-02-04 05:21:00,
2013-02-04 00:22:00,54.4,21.9,30.01,ENE,72,0.0,0.0,28,0.00,,,0.00,Wunderground v.1.15,2013-02-04 05:22:00,
2013-02-04 00:23:00,54.4,21.9,30.01,ENE,72,0.0,0.0,28,0.00,,,0.00,Wunderground v.1.15,2013-02-04 05:23:00,
2013-02-04 00:24:00,54.4,21.9,30.01,ENE,72,0.0,0.0,28,0.00,,,0.00,Wunderground v.1.15,2013-02-04 05:24:00,
2013-02-04 00:28:00,54.4,21.9,30.01,ENE,72,0.0,0.0,28,0.00,,,0.00,Wunderground v.1.15,2013-02-04 05:28:00,
2013-02-04 00:30:00,53.6,21.2,30.01,ENE,72,0.0,0.0,28,0.00,,,0.00,Wunderground v.1.15,2013-02-04 05:30:00,
2013-02-04 00:31:00,53.6,21.2,30.01,ENE,72,0.0,0.0,28,0.00,,,0.00,Wunderground v.1.15,2013-02-04 05:31:00,
2013-02-04 00:32:00,53.6,21.2,30.01,ENE,72,0.0,0.0,28,0.00,,,0.00,Wunderground v.1.15,2013-02-04 05:32:00,
2013-02-04 00:35:00,53.5,21.2,30.01,ENE,72,0.0,0.0,28,0.00,,,0.00,Wunderground v.1.15,2013-02-04 05:35:00,
2013-02-04 00:37:00,53.5,21.2,30.01,ENE,72,0.0,0.0,28,0.00,,,0.00,Wunderground v.1.15,2013-02-04 05:37:00,
2013-02-04 00:40:00,53.5,21.2,30.01,ENE,72,0.0,0.0,28,0.00,,,0.00,Wunderground v.1.15,2013-02-04 05:40:00,
2013-02-04 00:42:00,53.3,21.0,30.01,ENE,72,0.0,0.0,28,0.00,,,0.00,Wunderground v.1.15,2013-02-04 05:42:00,
2013-02-04 00:44:00,53.5,21.2,30.01,ENE,72,0.0,2.0,28,0.00,,,0.00,Wunderground v.1.15,2013-02-04 05:44:00,
2013-02-04 00:45:00,53.6,21.2,30.01,ENE,72,0.0,2.0,28,0.00,,,0.00,Wunderground v.1.15,2013-02-04 05:45:00,
2013-02-04 00:48:00,53.6,21.2,30.01,ENE,72,0.0,2.0,28,0.00,,,0.00,Wunderground v.1.15,2013-02-04 05:48:00,
2013-02-04 00:49:00,53.6,21.2,30.01,ENE,66,0.0,3.0,28,0.00,,,0.00,Wunderground v.1.15,2013-02-04 05:49:00,
2013-02-04 00:52:00,53.6,21.2,30.01,NNW,343,2.0,6.0,28,0.00,,,0.00,Wunderground v.1.15,2013-02-04 05:52:00,
2013-02-04 00:54:00,54.8,22.3,30.01,NNW,342,2.0,6.0,28,0.00,,,0.00,Wunderground v.1.15,2013-02-04 05:54:00,
2013-02-04 00:56:00,54.8,18.6,30.01,NNW,340,3.0,6.0,24,0.00,,,0.00,Wunderground v.1.15,2013-02-04 05:56:00,
2013-02-04 01:00:00,55.6,18.3,30.01,NNW,340,4.0,4.0,23,0.00,,,0.00,Wunderground v.1.15,2013-02-04 06:00:00,
2013-02-04 01:01:00,55.6,18.3,30.01,NNW,340,3.0,4.0,23,0.00,,,0.00,Wunderground v.1.15,2013-02-04 06:01:00,
2013-02-04 01:02:00,56.0,18.7,30.01,NNW,340,2.0,4.0,23,0.00,,,0.00,Wunderground v.1.15,2013-02-04 06:02:00,
2013-02-04 01:07:00,55.9,18.6,30.01,NNW,340,1.0,4.0,23,0.00,,,0.00,Wunderground v.1.15,2013-02-04 06:07:00,
2013-02-04 01:10:00,55.6,19.3,30.01,NNW,340,0.0,0.0,24,0.00,,,0.00,Wunderground v.1.15,2013-02-04 06:10:00,
2013-02-04 01:12:00,55.4,20.1,30.01,NNW,340,0.0,0.0,25,0.00,,,0.00,Wunderground v.1.15,2013-02-04 06:12:00,
2013-02-04 01:13:00,55.3,20.0,30.01,NNW,340,0.0,0.0,25,0.00,,,0.00,Wunderground v.1.15,2013-02-04 06:13:00,
2013-02-04 01:15:00,55.3,20.0,30.01,NNW,340,0.0,0.0,25,0.00,,,0.00,Wunderground v.1.15,2013-02-04 06:15:00,
2013-02-04 01:16:00,55.1,19.9,30.01,NNW,340,0.0,0.0,25,0.00,,,0.00,Wunderground v.1.15,2013-02-04 06:16:00,
2013-02-04 01:18:00,55.0,20.7,30.01,NNW,340,0.0,0.0,26,0.00,,,0.00,Wunderground v.1.15,2013-02-04 06:18:00,
2013-02-04 01:20:00,54.8,20.5,30.01,NNW,340,0.0,0.0,26,0.00,,,0.00,Wunderground v.1.15,2013-02-04 06:20:00,
2013-02-04 01:22:00,54.7,22.2,30.01,NNW,340,0.0,2.0,28,0.00,,,0.00,Wunderground v.1.15,2013-02-04 06:22:00,
2013-02-04 01:23:00,54.7,22.2,30.01,NNW,340,0.0,2.0,28,0.00,,,0.00,Wunderground v.1.15,2013-02-04 06:23:00,
2013-02-04 01:26:00,55.1,25.7,30.01,NNW,340,1.0,3.0,32,0.00,,,0.00,Wunderground v.1.15,2013-02-04 06:26:00,
2013-02-04 01:27:00,55.3,25.1,30.01,NNW,340,1.0,3.0,31,0.00,,,0.00,Wunderground v.1.15,2013-02-04 06:27:00,
2013-02-04 01:28:00,55.4,26.0,30.01,NNW,340,2.0,4.0,32,0.00,,,0.00,Wunderground v.1.15,2013-02-04 06:28:00,
2013-02-04 01:32:00,56.0,22.4,30.01,NW,312,3.0,3.0,27,0.00,,,0.00,Wunderground v.1.15,2013-02-04 06:32:00,
2013-02-04 01:33:00,56.2,23.5,30.01,NW,312,3.0,3.0,28,0.00,,,0.00,Wunderground v.1.15,2013-02-04 06:33:00,
2013-02-04 01:34:00,56.3,22.7,30.01,NW,312,3.0,3.0,27,0.00,,,0.00,Wunderground v.1.15,2013-02-04 06:34:00,
2013-02-04 01:35:00,56.5,22.9,30.01,NW,312,3.0,3.0,27,0.00,,,0.00,Wunderground v.1.15,2013-02-04 06:35:00,
2013-02-04 01:38:00,56.6,21.1,30.01,NW,312,3.0,3.0,25,0.00,,,0.00,Wunderground v.1.15,2013-02-04 06:38:00,
2013-02-04 01:40:00,56.6,19.2,30.01,NW,312,2.0,2.0,23,0.00,,,0.00,Wunderground v.1.15,2013-02-04 06:40:00,
2013-02-04 01:43:00,56.5,19.1,30.01,NW,313,2.0,3.0,23,0.00,,,0.00,Wunderground v.1.15,2013-02-04 06:43:00,
2013-02-04 01:44:00,56.5,19.1,30.01,NW,313,2.0,3.0,23,0.00,,,0.00,Wunderground v.1.15,2013-02-04 06:44:00,
2013-02-04 01:47:00,56.5,19.1,30.00,NW,316,2.0,4.0,23,0.00,,,0.00,Wunderground v.1.15,2013-02-04 06:47:00,
2013-02-04 01:50:00,56.5,18.1,30.00,NW,319,3.0,3.0,22,0.00,,,0.00,Wunderground v.1.15,2013-02-04 06:50:00,
2013-02-04 01:52:00,56.5,20.1,30.00,NW,319,3.0,3.0,24,0.00,,,0.00,Wunderground v.1.15,2013-02-04 06:52:00,
2013-02-04 01:53:00,56.5,20.1,30.00,NW,319,3.0,3.0,24,0.00,,,0.00,Wunderground v.1.15,2013-02-04 06:53:00,
2013-02-04 01:56:00,56.3,19.9,30.00,NW,319,2.0,3.0,24,0.00,,,0.00,Wunderground v.1.15,2013-02-04 06:56:00,
2013-02-04 01:59:00,56.2,22.6,30.00,NW,319,2.0,3.0,27,0.00,,,0.00,Wunderground v.1.15,2013-02-04 06:59:00,
2013-02-04 02:02:00,56.0,22.4,30.00,NW,319,2.0,2.0,27,0.00,,,0.00,Wunderground v.1.15,2013-02-04 07:02:00,
2013-02-04 02:05:00,56.0,22.4,30.00,NW,320,2.0,5.0,27,0.00,,,0.00,Wunderground v.1.15,2013-02-04 07:05:00,
2013-02-04 02:06:00,56.0,22.4,30.00,NW,320,2.0,5.0,27,0.00,,,0.00,Wunderground v.1.15,2013-02-04 07:06:00,
2013-02-04 02:07:00,56.0,22.4,30.00,NW,320,2.0,5.0,27,0.00,,,0.00,Wunderground v.1.15,2013-02-04 07:07:00,
2013-02-04 02:10:00,55.7,22.2,30.00,NW,320,3.0,3.0,27,0.00,,,0.00,Wunderground v.1.15,2013-02-04 07:10:00,
2013-02-04 02:12:00,55.7,22.2,30.00,NW,320,4.0,4.0,27,0.00,,,0.00,Wunderground v.1.15,2013-02-04 07:12:00,
2013-02-04 02:13:00,55.6,22.1,30.00,NW,320,4.0,4.0,27,0.00,,,0.00,Wunderground v.1.15,2013-02-04 07:13:00,
2013-02-04 02:16:00,55.4,21.9,30.00,NW,320,4.0,4.0,27,0.00,,,0.00,Wunderground v.1.15,2013-02-04 07:16:00,
2013-02-04 02:18:00,55.4,21.9,30.00,NW,322,3.0,4.0,27,0.00,,,0.00,Wunderground v.1.15,2013-02-04 07:18:00,
2013-02-04 02:20:00,55.3,21.8,30.00,NW,322,2.0,2.0,27,0.00,,,0.00,Wunderground v.1.15,2013-02-04 07:20:00,
2013-02-04 02:22:00,55.3,21.8,30.00,NW,323,2.0,5.0,27,0.00,,,0.00,Wunderground v.1.15,2013-02-04 07:22:00,
2013-02-04 02:26:00,55.3,21.8,30.00,NNW,332,3.0,5.0,27,0.00,,,0.00,Wunderground v.1.15,2013-02-04 07:26:00,
2013-02-04 02:28:00,55.0,23.3,30.00,NNW,332,3.0,5.0,29,0.00,,,0.00,Wunderground v.1.15,2013-02-04 07:28:00,
2013-02-04 02:29:00,54.8,23.1,30.00,NNW,332,3.0,5.0,29,0.00,,,0.00,Wunderground v.1.15,2013-02-04 07:29:00,
2013-02-04 02:32:00,54.8,23.1,30.00,NNW,333,3.0,3.0,29,0.00,,,0.00,Wunderground v.1.15,2013-02-04 07:32:00,
2013-02-04 02:33:00,54.7,23.0,30.00,NNW,333,3.0,3.0,29,0.00,,,0.00,Wunderground v.1.15,2013-02-04 07:33:00,
2013-02-04 02:36:00,54.7,23.0,30.00,NNW,333,3.0,3.0,29,0.00,,,0.00,Wunderground v.1.15,2013-02-04 07:36:00,
2013-02-04 02:38:00,54.7,23.0,30.00,NNW,333,3.0,3.0,29,0.00,,,0.00,Wunderground v.1.15,2013-02-04 07:38:00,
2013-02-04 02:40:00,54.5,22.9,30.00,NNW,333,2.0,2.0,29,0.00,,,0.00,Wunderground v.1.15,2013-02-04 07:40:00,
2013-02-04 02:41:00,54.5,22.9,30.00,NNW,333,2.0,2.0,29,0.00,,,0.00,Wunderground v.1.15,2013-02-04 07:41:00,
2013-02-04 02:44:00,54.5,22.9,30.00,NNW,333,1.0,2.0,29,0.00,,,0.00,Wunderground v.1.15,2013-02-04 07:44:00,
2013-02-04 02:45:00,54.5,22.9,30.00,NNW,333,1.0,2.0,29,0.00,,,0.00,Wunderground v.1.15,2013-02-04 07:45:00,
2013-02-04 02:46:00,54.5,22.9,30.00,NNW,333,1.0,2.0,29,0.00,,,0.00,Wunderground v.1.15,2013-02-04 07:46:00,
2013-02-04 02:51:00,54.1,22.5,30.00,NNW,333,0.0,0.0,29,0.00,,,0.00,Wunderground v.1.15,2013-02-04 07:51:00,
2013-02-04 02:53:00,54.1,30.9,30.00,NNW,333,0.0,0.0,41,0.00,,,0.00,Wunderground v.1.15,2013-02-04 07:53:00,
2013-02-04 02:54:00,54.1,30.9,30.00,NNW,333,0.0,0.0,41,0.00,,,0.00,Wunderground v.1.15,2013-02-04 07:54:00,
2013-02-04 02:55:00,54.1,32.1,30.00,NNW,333,0.0,0.0,43,0.00,,,0.00,Wunderground v.1.15,2013-02-04 07:55:00,
2013-02-04 02:56:00,54.1,32.1,30.00,NNW,333,0.0,0.0,43,0.00,,,0.00,Wunderground v.1.15,2013-02-04 07:56:00,
2013-02-04 03:00:00,53.9,33.0,30.00,NNW,333,0.0,0.0,45,0.00,,,0.00,Wunderground v.1.15,2013-02-04 08:00:00,
2013-02-04 03:02:00,53.9,33.0,30.00,NNW,333,0.0,0.0,45,0.00,,,0.00,Wunderground v.1.15,2013-02-04 08:02:00,
2013-02-04 03:04:00,53.9,34.6,30.00,NNW,333,0.0,2.0,48,0.00,,,0.00,Wunderground v.1.15,2013-02-04 08:04:00,
2013-02-04 03:07:00,53.9,37.1,30.00,NNW,337,1.0,2.0,53,0.00,,,0.00,Wunderground v.1.15,2013-02-04 08:07:00,
2013-02-04 03:09:00,53.9,37.1,30.00,NNW,337,1.0,2.0,53,0.00,,,0.00,Wunderground v.1.15,2013-02-04 08:09:00,
2013-02-04 03:10:00,53.9,37.1,30.00,NNW,337,1.0,2.0,53,0.00,,,0.00,Wunderground v.1.15,2013-02-04 08:10:00,
2013-02-04 03:11:00,53.9,38.6,30.00,NNW,337,1.0,2.0,56,0.00,,,0.00,Wunderground v.1.15,2013-02-04 08:11:00,
2013-02-04 03:14:00,53.9,39.5,30.00,NNW,337,1.0,3.0,58,0.00,,,0.00,Wunderground v.1.15,2013-02-04 08:14:00,
2013-02-04 03:16:00,54.1,40.1,30.00,NNW,337,1.0,3.0,59,0.00,,,0.00,Wunderground v.1.15,2013-02-04 08:16:00,
2013-02-04 03:18:00,54.1,40.9,30.00,NNW,337,1.0,3.0,61,0.00,,,0.00,Wunderground v.1.15,2013-02-04 08:18:00,
2013-02-04 03:19:00,54.1,41.4,30.00,NNW,337,1.0,3.0,62,0.00,,,0.00,Wunderground v.1.15,2013-02-04 08:19:00,
2013-02-04 03:22:00,54.1,42.2,30.00,NNW,337,1.0,1.0,64,0.00,,,0.00,Wunderground v.1.15,2013-02-04 08:22:00,
2013-02-04 03:24:00,54.1,42.6,30.00,NNW,337,1.0,1.0,65,0.00,,,0.00,Wunderground v.1.15,2013-02-04 08:24:00,
2013-02-04 03:25:00,54.1,42.6,30.00,NNW,337,1.0,1.0,65,0.00,,,0.00,Wunderground v.1.15,2013-02-04 08:25:00,
2013-02-04 03:27:00,54.1,43.8,30.00,NNW,337,1.0,3.0,68,0.00,,,0.00,Wunderground v.1.15,2013-02-04 08:27:00,
2013-02-04 03:29:00,54.1,43.8,30.00,NNW,337,1.0,3.0,68,0.00,,,0.00,Wunderground v.1.15,2013-02-04 08:29:00,
2013-02-04 03:30:00,54.1,43.8,30.00,NNW,337,1.0,2.0,68,0.00,,,0.00,Wunderground v.1.15,2013-02-04 08:30:00,
2013-02-04 03:32:00,54.1,44.5,30.00,NNW,337,1.0,2.0,70,0.00,,,0.00,Wunderground v.1.15,2013-02-04 08:32:00,
2013-02-04 03:33:00,54.1,44.5,30.00,NNW,337,1.0,2.0,70,0.00,,,0.00,Wunderground v.1.15,2013-02-04 08:33:00,
2013-02-04 03:36:00,54.1,44.5,30.00,NNW,337,2.0,3.0,70,0.00,,,0.00,Wunderground v.1.15,2013-02-04 08:36:00,
2013-02-04 03:37:00,54.1,46.0,30.00,NNW,337,2.0,3.0,74,0.00,,,0.00,Wunderground v.1.15,2013-02-04 08:37:00,
2013-02-04 03:40:00,54.1,46.0,30.00,NNW,337,2.0,2.0,74,0.00,,,0.00,Wunderground v.1.15,2013-02-04 08:40:00,
2013-02-04 03:41:00,54.1,46.3,30.00,NNW,337,2.0,2.0,75,0.00,,,0.00,Wunderground v.1.15,2013-02-04 08:41:00,
2013-02-04 03:45:00,54.1,46.3,30.00,NNW,337,1.0,2.0,75,0.00,,,0.00,Wunderground v.1.15,2013-02-04 08:45:00,
2013-02-04 03:47:00,54.1,47.0,30.00,NNW,337,1.0,2.0,77,0.00,,,0.00,Wunderground v.1.15,2013-02-04 08:47:00,
2013-02-04 03:50:00,54.1,47.0,30.00,NNW,337,1.0,1.0,77,0.00,,,0.00,Wunderground v.1.15,2013-02-04 08:50:00,
2013-02-04 03:51:00,54.1,47.0,30.00,NNW,337,1.0,1.0,77,0.00,,,0.00,Wunderground v.1.15,2013-02-04 08:51:00,
2013-02-04 03:53:00,54.1,47.7,30.00,NNW,337,1.0,1.0,79,0.00,,,0.00,Wunderground v.1.15,2013-02-04 08:53:00,
2013-02-04 03:55:00,54.1,47.7,30.00,NNW,337,0.0,1.0,79,0.00,,,0.00,Wunderground v.1.15,2013-02-04 08:55:00,
2013-02-04 03:57:00,54.1,47.7,30.00,NNW,337,0.0,1.0,79,0.00,,,0.00,Wunderground v.1.15,2013-02-04 08:57:00,
2013-02-04 03:58:00,54.1,47.7,30.00,NNW,337,0.0,1.0,79,0.00,,,0.00,Wunderground v.1.15,2013-02-04 08:58:00,
2013-02-04 03:59:00,54.1,47.7,30.00,NNW,337,0.0,1.0,79,0.00,,,0.00,Wunderground v.1.15,2013-02-04 08:59:00,
2013-02-04 04:00:00,54.1,47.7,30.00,NNW,337,0.0,0.0,79,0.00,,,0.00,Wunderground v.1.15,2013-02-04 09:00:00,
2013-02-04 04:04:00,54.1,47.7,30.00,NNW,337,0.0,0.0,79,0.00,,,0.00,Wunderground v.1.15,2013-02-04 09:04:00,
2013-02-04 04:05:00,54.1,47.7,30.00,NNW,337,0.0,0.0,79,0.00,,,0.00,Wunderground v.1.15,2013-02-04 09:05:00,
2013-02-04 04:07:00,54.1,47.7,30.00,NNW,337,0.0,0.0,79,0.00,,,0.00,Wunderground v.1.15,2013-02-04 09:07:00,
2013-02-04 04:09:00,54.1,47.7,30.00,NNW,337,0.0,0.0,79,0.00,,,0.00,Wunderground v.1.15,2013-02-04 09:09:00,
2013-02-04 04:10:00,54.1,47.7,30.00,NNW,337,0.0,0.0,79,0.00,,,0.00,Wunderground v.1.15,2013-02-04 09:10:00,
2013-02-04 04:12:00,54.1,47.7,30.00,NNW,337,0.0,0.0,79,0.00,,,0.00,Wunderground v.1.15,2013-02-04 09:12:00,
2013-02-04 04:16:00,54.1,47.7,30.00,NNW,337,0.0,0.0,79,0.00,,,0.00,Wunderground v.1.15,2013-02-04 09:16:00,
2013-02-04 04:17:00,54.1,47.7,30.00,NNW,337,0.0,0.0,79,0.00,,,0.00,Wunderground v.1.15,2013-02-04 09:17:00,
2013-02-04 04:18:00,54.1,47.7,30.00,NNW,337,0.0,0.0,79,0.00,,,0.00,Wunderground v.1.15,2013-02-04 09:18:00,
2013-02-04 04:19:00,54.1,47.7,30.00,NNW,337,0.0,0.0,79,0.00,,,0.00,Wunderground v.1.15,2013-02-04 09:19:00,
2013-02-04 04:22:00,53.3,48.3,30.00,NNW,337,0.0,0.0,83,0.00,,,0.00,Wunderground v.1.15,2013-02-04 09:22:00,
2013-02-04 04:25:00,53.2,48.2,30.00,NNW,337,0.0,0.0,83,0.00,,,0.00,Wunderground v.1.15,2013-02-04 09:25:00,
2013-02-04 04:26:00,53.2,48.2,30.00,NNW,337,0.0,0.0,83,0.00,,,0.00,Wunderground v.1.15,2013-02-04 09:26:00,
2013-02-04 04:28:00,53.2,48.5,30.00,NNW,337,0.0,0.0,84,0.00,,,0.00,Wunderground v.1.15,2013-02-04 09:28:00,
2013-02-04 04:29:00,53.2,48.5,30.00,NNW,337,0.0,1.0,84,0.00,,,0.00,Wunderground v.1.15,2013-02-04 09:29:00,
2013-02-04 04:33:00,53.2,48.5,30.00,NNW,337,0.0,1.0,84,0.00,,,0.00,Wunderground v.1.15,2013-02-04 09:33:00,
2013-02-04 04:34:00,53.1,48.4,30.00,NNW,337,1.0,3.0,84,0.00,,,0.00,Wunderground v.1.15,2013-02-04 09:34:00,
2013-02-04 04:35:00,53.1,48.4,30.00,NNW,337,1.0,3.0,84,0.00,,,0.00,Wunderground v.1.15,2013-02-04 09:35:00,
2013-02-04 04:39:00,53.1,48.4,30.00,NNW,337,1.0,3.0,84,0.00,,,0.00,Wunderground v.1.15,2013-02-04 09:39:00,
2013-02-04 04:40:00,53.1,48.4,30.00,NNW,340,1.0,3.0,84,0.00,,,0.00,Wunderground v.1.15,2013-02-04 09:40:00,
2013-02-04 04:42:00,53.1,48.4,30.00,NNW,340,2.0,3.0,84,0.00,,,0.00,Wunderground v.1.15,2013-02-04 09:42:00,
2013-02-04 04:45:00,53.1,48.4,30.00,NNE,24,2.0,4.0,84,0.00,,,0.00,Wunderground v.1.15,2013-02-04 09:45:00,
2013-02-04 04:46:00,53.1,48.4,30.00,North,6,2.0,4.0,84,0.00,,,0.00,Wunderground v.1.15,2013-02-04 09:46:00,
2013-02-04 04:49:00,53.1,48.4,30.00,North,6,2.0,4.0,84,0.00,,,0.00,Wunderground v.1.15,2013-02-04 09:49:00,
2013-02-04 04:51:00,53.3,48.6,30.00,North,0,2.0,6.0,84,0.00,,,0.00,Wunderground v.1.15,2013-02-04 09:51:00,
2013-02-04 04:53:00,53.3,30.8,30.00,North,0,2.0,6.0,42,0.00,,,0.00,Wunderground v.1.15,2013-02-04 09:53:00,
2013-02-04 04:54:00,53.5,31.0,30.00,North,0,2.0,6.0,42,0.00,,,0.00,Wunderground v.1.15,2013-02-04 09:54:00,
2013-02-04 04:57:00,53.5,31.0,30.00,North,0,2.0,6.0,42,0.00,,,0.00,Wunderground v.1.15,2013-02-04 09:57:00,
2013-02-04 04:59:00,53.5,31.0,30.00,North,0,2.0,6.0,42,0.00,,,0.00,Wunderground v.1.15,2013-02-04 09:59:00,
2013-02-04 05:00:00,53.5,31.0,30.00,North,359,2.0,2.0,42,0.00,,,0.00,Wunderground v.1.15,2013-02-04 10:00:00,
2013-02-04 05:01:00,53.5,31.0,30.00,North,0,2.0,3.0,42,0.00,,,0.00,Wunderground v.1.15,2013-02-04 10:01:00,
2013-02-04 05:04:00,53.3,20.1,30.00,North,359,2.0,3.0,27,0.00,,,0.00,Wunderground v.1.15,2013-02-04 10:04:00,
2013-02-04 05:06:00,53.3,19.2,30.00,North,359,2.0,3.0,26,0.00,,,0.00,Wunderground v.1.15,2013-02-04 10:06:00,
2013-02-04 05:07:00,53.3,18.3,30.00,North,359,1.0,3.0,25,0.00,,,0.00,Wunderground v.1.15,2013-02-04 10:07:00,
2013-02-04 05:09:00,53.3,17.4,30.00,North,359,2.0,3.0,24,0.00,,,0.00,Wunderground v.1.15,2013-02-04 10:09:00,
2013-02-04 05:10:00,53.3,17.4,30.00,North,359,2.0,2.0,24,0.00,,,0.00,Wunderground v.1.15,2013-02-04 10:10:00,
2013-02-04 05:15:00,53.2,15.3,30.01,North,359,2.0,3.0,22,0.00,,,0.00,Wunderground v.1.15,2013-02-04 10:15:00,
2013-02-04 05:16:00,53.2,15.3,30.01,North,359,2.0,3.0,22,0.00,,,0.00,Wunderground v.1.15,2013-02-04 10:16:00,
2013-02-04 05:18:00,53.2,11.9,30.01,North,359,2.0,3.0,19,0.00,,,0.00,Wunderground v.1.15,2013-02-04 10:18:00,
2013-02-04 05:20:00,53.2,11.9,30.01,North,359,2.0,2.0,19,0.00,,,0.00,Wunderground v.1.15,2013-02-04 10:20:00,
2013-02-04 05:22:00,53.1,9.4,30.01,North,359,2.0,3.0,17,0.00,,,0.00,Wunderground v.1.15,2013-02-04 10:22:00,
2013-02-04 05:25:00,53.1,9.4,30.01,North,359,2.0,3.0,17,0.00,,,0.00,Wunderground v.1.15,2013-02-04 10:25:00,
2013-02-04 05:26:00,53.1,9.4,30.01,North,359,2.0,3.0,17,0.00,,,0.00,Wunderground v.1.15,2013-02-04 10:26:00,
2013-02-04 05:28:00,53.1,9.4,30.01,North,359,2.0,3.0,17,0.00,,,0.00,Wunderground v.1.15,2013-02-04 10:28:00,
2013-02-04 05:32:00,53.1,9.4,30.01,North,0,2.0,3.0,17,0.00,,,0.00,Wunderground v.1.15,2013-02-04 10:32:00,
2013-02-04 05:33:00,52.9,9.2,30.01,North,0,2.0,3.0,17,0.00,,,0.00,Wunderground v.1.15,2013-02-04 10:33:00,
2013-02-04 05:35:00,52.9,9.2,30.01,North,0,2.0,3.0,17,0.00,,,0.00,Wunderground v.1.15,2013-02-04 10:35:00,
2013-02-04 05:39:00,52.9,9.2,30.01,North,0,2.0,3.0,17,0.00,,,0.00,Wunderground v.1.15,2013-02-04 10:39:00,
2013-02-04 05:40:00,52.9,9.2,30.01,North,0,2.0,2.0,17,0.00,,,0.00,Wunderground v.1.15,2013-02-04 10:40:00,
2013-02-04 05:41:00,52.9,9.2,30.01,North,0,2.0,3.0,17,0.00,,,0.00,Wunderground v.1.15,2013-02-04 10:41:00,
2013-02-04 05:42:00,52.9,9.2,30.01,North,359,2.0,3.0,17,0.00,,,0.00,Wunderground v.1.15,2013-02-04 10:42:00,
2013-02-04 05:47:00,52.9,9.2,30.02,North,359,2.0,3.0,17,0.00,,,0.00,Wunderground v.1.15,2013-02-04 10:47:00,
2013-02-04 05:48:00,52.9,-0.3,30.02,North,359,1.0,3.0,11,0.00,,,0.00,Wunderground v.1.15,2013-02-04 10:48:00,
2013-02-04 05:50:00,52.9,-0.3,30.02,North,359,1.0,2.0,11,0.00,,,0.00,Wunderground v.1.15,2013-02-04 10:50:00,
2013-02-04 05:51:00,52.9,-0.3,30.02,North,359,1.0,2.0,11,0.00,,,0.00,Wunderground v.1.15,2013-02-04 10:51:00,
2013-02-04 05:52:00,52.6,-2.6,30.02,North,359,1.0,2.0,10,0.00,,,0.00,Wunderground v.1.15,2013-02-04 10:52:00,
2013-02-04 05:56:00,52.6,-2.6,30.02,North,359,1.0,4.0,10,0.00,,,0.00,Wunderground v.1.15,2013-02-04 10:56:00,
2013-02-04 05:57:00,52.6,-2.6,30.02,North,359,1.0,4.0,10,0.00,,,0.00,Wunderground v.1.15,2013-02-04 10:57:00,
2013-02-04 05:58:00,52.6,-2.6,30.02,North,359,2.0,4.0,10,0.00,,,0.00,Wunderground v.1.15,2013-02-04 10:58:00,
2013-02-04 06:03:00,52.5,-2.6,30.02,North,359,1.0,2.0,10,0.00,,,0.00,Wunderground v.1.15,2013-02-04 11:03:00,
2013-02-04 06:04:00,52.5,-2.6,30.02,North,359,1.0,2.0,10,0.00,,,0.00,Wunderground v.1.15,2013-02-04 11:04:00,
2013-02-04 06:05:00,52.3,-2.8,30.02,North,357,0.0,2.0,10,0.00,,,0.00,Wunderground v.1.15,2013-02-04 11:05:00,
2013-02-04 06:06:00,52.3,2.8,30.02,North,357,0.0,2.0,13,0.00,,,0.00,Wunderground v.1.15,2013-02-04 11:06:00,
2013-02-04 06:11:00,52.2,4.3,30.02,North,359,0.0,0.0,14,0.00,,,0.00,Wunderground v.1.15,2013-02-04 11:11:00,
2013-02-04 06:12:00,52.2,4.3,30.02,North,359,0.0,0.0,14,0.00,,,0.00,Wunderground v.1.15,2013-02-04 11:12:00,
2013-02-04 06:13:00,52.2,4.3,30.02,North,359,0.0,0.0,14,0.00,,,0.00,Wunderground v.1.15,2013-02-04 11:13:00,
2013-02-04 06:14:00,52.2,4.3,30.02,North,359,0.0,0.0,14,0.00,,,0.00,Wunderground v.1.15,2013-02-04 11:14:00,
2013-02-04 06:18:00,51.9,4.1,30.02,North,359,0.0,0.0,14,0.00,,,0.00,Wunderground v.1.15,2013-02-04 11:18:00,
2013-02-04 06:19:00,51.9,4.1,30.02,North,359,0.0,0.0,14,0.00,,,0.00,Wunderground v.1.15,2013-02-04 11:19:00,
2013-02-04 06:20:00,51.9,4.1,30.02,North,359,0.0,0.0,14,0.00,,,0.00,Wunderground v.1.15,2013-02-04 11:20:00,
2013-02-04 06:24:00,51.7,3.9,30.02,North,359,0.0,0.0,14,0.00,,,0.00,Wunderground v.1.15,2013-02-04 11:24:00,
2013-02-04 06:25:00,51.7,3.9,30.02,North,359,0.0,0.0,14,0.00,,,0.00,Wunderground v.1.15,2013-02-04 11:25:00,
2013-02-04 06:27:00,51.6,3.9,30.02,North,359,0.0,0.0,14,0.00,,,0.00,Wunderground v.1.15,2013-02-04 11:27:00,
2013-02-04 06:28:00,51.6,3.9,30.02,North,359,0.0,0.0,14,0.00,,,0.00,Wunderground v.1.15,2013-02-04 11:28:00,
2013-02-04 06:30:00,51.6,3.9,30.02,North,359,0.0,0.0,14,0.00,,,0.00,Wunderground v.1.15,2013-02-04 11:30:00,
2013-02-04 06:32:00,51.6,3.9,30.03,North,359,0.0,0.0,14,0.00,,,0.00,Wunderground v.1.15,2013-02-04 11:32:00,
2013-02-04 06:34:00,51.4,15.8,30.03,North,359,0.0,0.0,24,0.00,,,0.00,Wunderground v.1.15,2013-02-04 11:34:00,
2013-02-04 06:36:00,51.3,16.6,30.03,North,359,0.0,0.0,25,0.00,,,0.00,Wunderground v.1.15,2013-02-04 11:36:00,
2013-02-04 06:38:00,51.1,16.4,30.03,North,359,0.0,0.0,25,0.00,,,0.00,Wunderground v.1.15,2013-02-04 11:38:00,
2013-02-04 06:40:00,51.1,16.4,30.03,North,359,0.0,0.0,25,0.00,,,0.00,Wunderground v.1.15,2013-02-04 11:40:00,
2013-02-04 06:41:00,51.1,16.4,30.03,North,357,0.0,0.0,25,0.00,,,0.00,Wunderground v.1.15,2013-02-04 11:41:00,
2013-02-04 06:45:00,50.8,18.0,30.03,North,359,0.0,0.0,27,0.00,,,0.00,Wunderground v.1.15,2013-02-04 11:45:00,
2013-02-04 06:46:00,50.8,18.0,30.03,North,359,0.0,0.0,27,0.00,,,0.00,Wunderground v.1.15,2013-02-04 11:46:00,
2013-02-04 06:47:00,50.8,18.0,30.03,North,359,0.0,0.0,27,0.00,,,0.00,Wunderground v.1.15,2013-02-04 11:47:00,
2013-02-04 06:50:00,50.7,17.9,30.03,North,359,0.0,0.0,27,0.00,,,0.00,Wunderground v.1.15,2013-02-04 11:50:00,
2013-02-04 06:52:00,50.7,17.9,30.03,North,359,0.0,0.0,27,0.00,,,0.00,Wunderground v.1.15,2013-02-04 11:52:00,
2013-02-04 06:54:00,50.5,18.6,30.03,North,359,0.0,0.0,28,0.00,,,0.00,Wunderground v.1.15,2013-02-04 11:54:00,
2013-02-04 06:55:00,50.5,18.6,30.03,North,359,0.0,0.0,28,0.00,,,0.00,Wunderground v.1.15,2013-02-04 11:55:00,
2013-02-04 06:57:00,50.5,18.6,30.03,North,359,0.0,0.0,28,0.00,,,0.00,Wunderground v.1.15,2013-02-04 11:57:00,
2013-02-04 06:59:00,50.5,19.4,30.03,North,359,0.0,0.0,29,0.00,,,0.00,Wunderground v.1.15,2013-02-04 11:59:00,
2013-02-04 07:01:00,50.4,19.3,30.03,North,359,0.0,0.0,29,0.00,,,0.00,Wunderground v.1.15,2013-02-04 12:01:00,
2013-02-04 07:02:00,50.4,19.3,30.03,North,359,0.0,0.0,29,0.00,,,0.00,Wunderground v.1.15,2013-02-04 12:02:00,
2013-02-04 07:06:00,50.2,19.1,30.03,North,359,0.0,0.0,29,0.00,,,0.00,Wunderground v.1.15,2013-02-04 12:06:00,
2013-02-04 07:07:00,50.2,19.1,30.03,North,359,0.0,0.0,29,0.00,,,0.00,Wunderground v.1.15,2013-02-04 12:07:00,
2013-02-04 07:09:00,50.1,19.8,30.03,North,359,0.0,0.0,30,0.00,,,0.00,Wunderground v.1.15,2013-02-04 12:09:00,
2013-02-04 07:13:00,50.2,22.2,30.03,North,359,0.0,0.0,33,0.00,,,0.00,Wunderground v.1.15,2013-02-04 12:13:00,
2013-02-04 07:14:00,50.2,22.2,30.03,North,359,0.0,0.0,33,0.00,,,0.00,Wunderground v.1.15,2013-02-04 12:14:00,
2013-02-04 07:16:00,50.2,22.9,30.04,North,359,0.0,0.0,34,0.00,,,0.00,Wunderground v.1.15,2013-02-04 12:16:00,
2013-02-04 07:19:00,50.2,22.9,30.04,North,359,0.0,0.0,34,0.00,,,0.00,Wunderground v.1.15,2013-02-04 12:19:00,
2013-02-04 07:20:00,50.1,22.8,30.04,North,359,0.0,0.0,34,0.00,,,0.00,Wunderground v.1.15,2013-02-04 12:20:00,
2013-02-04 07:24:00,50.2,23.6,30.04,North,359,0.0,0.0,35,0.00,,,0.00,Wunderground v.1.15,2013-02-04 12:24:00,
2013-02-04 07:25:00,50.2,23.6,30.04,North,359,0.0,0.0,35,0.00,,,0.00,Wunderground v.1.15,2013-02-04 12:25:00,
2013-02-04 07:26:00,50.2,23.6,30.04,North,359,0.0,0.0,35,0.00,,,0.00,Wunderground v.1.15,2013-02-04 12:26:00,
2013-02-04 07:29:00,50.4,23.7,30.04,North,359,0.0,0.0,35,0.00,,,0.00,Wunderground v.1.15,2013-02-04 12:29:00,
2013-02-04 07:31:00,50.4,23.7,30.04,North,359,0.0,0.0,35,0.00,,,0.00,Wunderground v.1.15,2013-02-04 12:31:00,
2013-02-04 07:34:00,50.4,23.7,30.04,North,359,0.0,0.0,35,0.00,,,0.00,Wunderground v.1.15,2013-02-04 12:34:00,
2013-02-04 07:36:00,50.5,23.8,30.04,North,359,0.0,0.0,35,0.00,,,0.00,Wunderground v.1.15,2013-02-04 12:36:00,
2013-02-04 07:37:00,50.5,23.8,30.04,North,359,0.0,0.0,35,0.00,,,0.00,Wunderground v.1.15,2013-02-04 12:37:00,
2013-02-04 07:39:00,50.7,24.0,30.04,North,359,0.0,0.0,35,0.00,,,0.00,Wunderground v.1.15,2013-02-04 12:39:00,
2013-02-04 07:41:00,50.7,24.0,30.04,North,359,0.0,0.0,35,0.00,,,0.00,Wunderground v.1.15,2013-02-04 12:41:00,
2013-02-04 07:43:00,50.8,24.1,30.04,North,359,0.0,0.0,35,0.00,,,0.00,Wunderground v.1.15,2013-02-04 12:43:00,
2013-02-04 07:44:00,50.8,24.8,30.04,North,359,0.0,0.0,36,0.00,,,0.00,Wunderground v.1.15,2013-02-04 12:44:00,
2013-02-04 07:47:00,50.8,24.1,30.04,North,357,0.0,0.0,35,0.00,,,0.00,Wunderground v.1.15,2013-02-04 12:47:00,
2013-02-04 07:49:00,51.1,24.4,30.04,North,357,0.0,0.0,35,0.00,,,0.00,Wunderground v.1.15,2013-02-04 12:49:00,
2013-02-04 07:50:00,51.1,24.4,30.04,North,359,0.0,0.0,35,0.00,,,0.00,Wunderground v.1.15,2013-02-04 12:50:00,
2013-02-04 07:53:00,51.3,24.5,30.04,North,359,0.0,0.0,35,0.00,,,0.00,Wunderground v.1.15,2013-02-04 12:53:00,
2013-02-04 07:56:00,51.6,24.8,30.04,North,359,1.0,3.0,35,0.00,,,0.00,Wunderground v.1.15,2013-02-04 12:56:00,
2013-02-04 07:58:00,51.6,24.8,30.04,North,359,1.0,3.0,35,0.00,,,0.00,Wunderground v.1.15,2013-02-04 12:58:00,
2013-02-04 08:00:00,51.6,24.8,30.04,North,359,1.0,1.0,35,0.00,,,0.00,Wunderground v.1.15,2013-02-04 13:00:00,
2013-02-04 08:02:00,51.6,24.8,30.05,North,359,2.0,2.0,35,0.00,,,0.00,Wunderground v.1.15,2013-02-04 13:02:00,
2013-02-04 08:03:00,51.6,24.8,30.05,North,359,2.0,2.0,35,0.00,,,0.00,Wunderground v.1.15,2013-02-04 13:03:00,
2013-02-04 08:04:00,51.6,24.8,30.05,North,359,2.0,2.0,35,0.00,,,0.00,Wunderground v.1.15,2013-02-04 13:04:00,
2013-02-04 08:05:00,51.6,24.8,30.05,North,357,1.0,2.0,35,0.00,,,0.00,Wunderground v.1.15,2013-02-04 13:05:00,
2013-02-04 08:09:00,52.5,14.7,30.05,North,359,2.0,4.0,22,0.00,,,0.00,Wunderground v.1.15,2013-02-04 13:09:00,
2013-02-04 08:10:00,52.5,12.5,30.05,North,359,2.0,2.0,20,0.00,,,0.00,Wunderground v.1.15,2013-02-04 13:10:00,
2013-02-04 08:11:00,52.8,12.8,30.05,North,349,2.0,4.0,20,0.00,,,0.00,Wunderground v.1.15,2013-02-04 13:11:00,
2013-02-04 08:13:00,52.9,9.2,30.05,North,349,2.0,5.0,17,0.00,,,0.00,Wunderground v.1.15,2013-02-04 13:13:00,
2013-02-04 08:16:00,53.5,9.7,30.05,North,350,3.0,5.0,17,0.00,,,0.00,Wunderground v.1.15,2013-02-04 13:16:00,
2013-02-04 08:18:00,53.6,7.0,30.05,NNW,346,3.0,5.0,15,0.00,,,0.00,Wunderground v.1.15,2013-02-04 13:18:00,
2013-02-04 08:21:00,53.9,2.4,30.05,NNW,347,3.0,3.0,12,0.00,,,0.00,Wunderground v.1.15,2013-02-04 13:21:00,
2013-02-04 08:22:00,53.9,2.4,30.05,NNW,347,3.0,3.0,12,0.00,,,0.00,Wunderground v.1.15,2013-02-04 13:22:00,
2013-02-04 08:24:00,54.1,0.6,30.05,NNW,346,3.0,6.0,11,0.00,,,0.00,Wunderground v.1.15,2013-02-04 13:24:00,
2013-02-04 08:25:00,54.2,2.6,30.05,North,353,3.0,6.0,12,0.00,,,0.00,Wunderground v.1.15,2013-02-04 13:25:00,
2013-02-04 08:29:00,54.4,-5.8,30.05,North,356,4.0,7.0,8,0.00,,,0.00,Wunderground v.1.15,2013-02-04 13:29:00,
2013-02-04 08:30:00,54.5,-3.3,30.05,North,357,4.0,5.0,9,0.00,,,0.00,Wunderground v.1.15,2013-02-04 13:30:00,
2013-02-04 08:32:00,54.7,-3.2,30.05,North,0,4.0,5.0,9,0.00,,,0.00,Wunderground v.1.15,2013-02-04 13:32:00,
2013-02-04 08:34:00,54.8,-3.1,30.05,North,0,4.0,5.0,9,0.00,,,0.00,Wunderground v.1.15,2013-02-04 13:34:00,
2013-02-04 08:38:00,55.0,-5.4,30.05,North,0,4.0,5.0,8,0.00,,,0.00,Wunderground v.1.15,2013-02-04 13:38:00,
2013-02-04 08:39:00,55.1,-5.3,30.05,North,0,4.0,5.0,8,0.00,,,0.00,Wunderground v.1.15,2013-02-04 13:39:00,
2013-02-04 08:40:00,55.1,-5.3,30.05,North,0,4.0,4.0,8,0.00,,,0.00,Wunderground v.1.15,2013-02-04 13:40:00,
2013-02-04 08:43:00,55.4,-11.0,30.05,North,0,4.0,4.0,6,0.00,,,0.00,Wunderground v.1.15,2013-02-04 13:43:00,
2013-02-04 08:45:00,55.6,-10.8,30.05,North,0,4.0,4.0,6,0.00,,,0.00,Wunderground v.1.15,2013-02-04 13:45:00,
2013-02-04 08:48:00,55.7,-14.4,30.05,NNW,343,3.0,5.0,5,0.00,,,0.00,Wunderground v.1.15,2013-02-04 13:48:00,
2013-02-04 08:50:00,55.9,-18.7,30.05,NNW,344,3.0,6.0,4,0.00,,,0.00,Wunderground v.1.15,2013-02-04 13:50:00,
2013-02-04 08:51:00,55.9,-18.7,30.05,North,357,3.0,6.0,4,0.00,,,0.00,Wunderground v.1.15,2013-02-04 13:51:00,
2013-02-04 08:54:00,56.2,-24.0,30.05,North,357,3.0,6.0,3,0.00,,,0.00,Wunderground v.1.15,2013-02-04 13:54:00,
2013-02-04 08:55:00,56.3,-18.4,30.05,North,357,3.0,6.0,4,0.00,,,0.00,Wunderground v.1.15,2013-02-04 13:55:00,
2013-02-04 08:56:00,56.5,-23.7,30.05,North,359,3.0,6.0,3,0.00,,,0.00,Wunderground v.1.15,2013-02-04 13:56:00,
2013-02-04 08:57:00,56.5,-18.2,30.05,North,359,3.0,6.0,4,0.00,,,0.00,Wunderground v.1.15,2013-02-04 13:57:00,
2013-02-04 09:00:00,56.5,-43.5,30.05,North,353,3.0,4.0,1,0.00,,,0.00,Wunderground v.1.15,2013-02-04 14:00:00,
2013-02-04 09:01:00,56.5,-43.5,30.06,North,353,3.0,4.0,1,0.00,,,0.00,Wunderground v.1.15,2013-02-04 14:01:00,
2013-02-04 09:03:00,56.6,-43.4,30.06,North,0,3.0,4.0,1,0.00,,,0.00,Wunderground v.1.15,2013-02-04 14:03:00,
2013-02-04 09:05:00,56.7,-99.9,30.06,North,0,4.0,4.0,0,0.00,,,0.00,Wunderground v.1.15,2013-02-04 14:05:00,
2013-02-04 09:07:00,56.7,-99.9,30.06,North,0,4.0,5.0,255,0.00,,,0.00,Wunderground v.1.15,2013-02-04 14:07:00,
2013-02-04 09:10:00,57.0,-99.9,30.06,North,0,3.0,3.0,0,0.00,,,0.00,Wunderground v.1.15,2013-02-04 14:10:00,
2013-02-04 09:12:00,57.3,-99.9,30.06,North,349,3.0,5.0,0,0.00,,,0.00,Wunderground v.1.15,2013-02-04 14:12:00,
2013-02-04 09:13:00,57.5,-99.9,30.06,NNW,336,3.0,5.0,0,0.00,,,0.00,Wunderground v.1.15,2013-02-04 14:13:00,
2013-02-04 09:14:00,57.5,-99.9,30.06,NNW,336,3.0,5.0,0,0.00,,,0.00,Wunderground v.1.15,2013-02-04 14:14:00,
2013-02-04 09:19:00,58.0,-99.9,30.06,North,0,3.0,6.0,255,0.00,,,0.00,Wunderground v.1.15,2013-02-04 14:19:00,
2013-02-04 09:20:00,58.0,-99.9,30.06,North,0,3.0,3.0,255,0.00,,,0.00,Wunderground v.1.15,2013-02-04 14:20:00,
2013-02-04 09:21:00,58.1,-99.9,30.06,North,0,3.0,3.0,0,0.00,,,0.00,Wunderground v.1.15,2013-02-04 14:21:00,
2013-02-04 09:22:00,58.3,-99.9,30.06,North,0,3.0,3.0,0,0.00,,,0.00,Wunderground v.1.15,2013-02-04 14:22:00,
2013-02-04 09:26:00,58.6,-99.9,30.06,North,359,3.0,6.0,0,0.00,,,0.00,Wunderground v.1.15,2013-02-04 14:26:00,
2013-02-04 09:27:00,58.7,-99.9,30.06,North,0,3.0,6.0,0,0.00,,,0.00,Wunderground v.1.15,2013-02-04 14:27:00,
2013-02-04 09:28:00,58.7,-99.9,30.06,North,356,3.0,6.0,0,0.00,,,0.00,Wunderground v.1.15,2013-02-04 14:28:00,
2013-02-04 09:32:00,59.2,-99.9,30.06,NNW,329,4.0,5.0,0,0.00,,,0.00,Wunderground v.1.15,2013-02-04 14:32:00,
2013-02-04 09:34:00,59.3,-99.9,30.06,North,356,4.0,5.0,0,0.00,,,0.00,Wunderground v.1.15,2013-02-04 14:34:00,
2013-02-04 09:35:00,59.5,-99.9,30.06,NNW,343,4.0,5.0,0,0.00,,,0.00,Wunderground v.1.15,2013-02-04 14:35:00,
2013-02-04 09:36:00,59.5,-99.9,30.06,NNW,346,4.0,5.0,0,0.00,,,0.00,Wunderground v.1.15,2013-02-04 14:36:00,
2013-02-04 09:39:00,59.8,-99.9,30.06,NW,319,4.0,6.0,0,0.00,,,0.00,Wunderground v.1.15,2013-02-04 14:39:00,
2013-02-04 09:42:00,60.2,-99.9,30.06,NW,319,3.0,4.0,0,0.00,,,0.00,Wunderground v.1.15,2013-02-04 14:42:00,
2013-02-04 09:43:00,60.4,-99.9,30.06,NW,319,3.0,4.0,0,0.00,,,0.00,Wunderground v.1.15,2013-02-04 14:43:00,
2013-02-04 09:44:00,60.4,-99.9,30.06,NW,319,2.0,4.0,0,0.00,,,0.00,Wunderground v.1.15,2013-02-04 14:44:00,
2013-02-04 09:45:00,60.5,-99.9,30.06,NW,319,1.0,4.0,0,0.00,,,0.00,Wunderground v.1.15,2013-02-04 14:45:00,
2013-02-04 09:50:00,61.2,-99.9,30.06,NW,319,0.0,0.0,0,0.00,,,0.00,Wunderground v.1.15,2013-02-04 14:50:00,
2013-02-04 09:51:00,61.3,-99.9,30.06,NW,319,0.0,1.0,0,0.00,,,0.00,Wunderground v.1.15,2013-02-04 14:51:00,
2013-02-04 09:52:00,61.3,-99.9,30.06,NW,319,0.0,1.0,0,0.00,,,0.00,Wunderground v.1.15,2013-02-04 14:52:00,
2013-02-04 09:53:00,61.5,-99.9,30.06,NW,319,0.0,1.0,0,0.00,,,0.00,Wunderground v.1.15,2013-02-04 14:53:00,
2013-02-04 09:56:00,61.8,-99.9,30.06,NW,319,0.0,1.0,0,0.00,,,0.00,Wunderground v.1.15,2013-02-04 14:56:00,
2013-02-04 09:59:00,62.1,62.1,30.06,NW,319,0.0,1.0,100,0.00,,,0.00,Wunderground v.1.15,2013-02-04 14:59:00,
2013-02-04 10:00:00,62.3,-99.9,30.07,NW,319,0.0,0.0,0,0.00,,,0.00,Wunderground v.1.15,2013-02-04 15:00:00,
2013-02-04 10:03:00,62.7,62.7,30.07,NW,319,0.0,0.0,100,0.00,,,0.00,Wunderground v.1.15,2013-02-04 15:03:00,
2013-02-04 10:06:00,63.2,63.2,30.07,NW,319,0.0,0.0,100,0.00,,,0.00,Wunderground v.1.15,2013-02-04 15:06:00,
2013-02-04 10:08:00,63.4,63.4,30.07,NW,319,0.0,0.0,100,0.00,,,0.00,Wunderground v.1.15,2013-02-04 15:08:00,
2013-02-04 10:09:00,63.5,63.5,30.07,NW,319,0.0,0.0,100,0.00,,,0.00,Wunderground v.1.15,2013-02-04 15:09:00,
2013-02-04 10:10:00,63.5,63.5,30.07,NW,319,0.0,0.0,100,0.00,,,0.00,Wunderground v.1.15,2013-02-04 15:10:00,
2013-02-04 10:14:00,64.0,64.0,30.07,NW,319,0.0,0.0,100,0.00,,,0.00,Wunderground v.1.15,2013-02-04 15:14:00,
2013-02-04 10:16:00,64.2,64.2,30.06,NW,319,0.0,2.0,100,0.00,,,0.00,Wunderground v.1.15,2013-02-04 15:16:00,
2013-02-04 10:18:00,64.3,64.3,30.06,NW,319,0.0,2.0,100,0.00,,,0.00,Wunderground v.1.15,2013-02-04 15:18:00,
2013-02-04 10:21:00,64.3,64.3,30.06,NW,322,0.0,0.0,100,0.00,,,0.00,Wunderground v.1.15,2013-02-04 15:21:00,
2013-02-04 10:23:00,64.5,64.5,30.06,NW,322,0.0,0.0,100,0.00,,,0.00,Wunderground v.1.15,2013-02-04 15:23:00,
2013-02-04 10:24:00,64.7,64.7,30.06,NW,322,0.0,0.0,100,0.00,,,0.00,Wunderground v.1.15,2013-02-04 15:24:00,
2013-02-04 10:26:00,64.8,64.8,30.06,NW,322,0.0,1.0,100,0.00,,,0.00,Wunderground v.1.15,2013-02-04 15:26:00,
2013-02-04 10:30:00,65.0,65.0,30.06,NW,322,0.0,0.0,100,0.00,,,0.00,Wunderground v.1.15,2013-02-04 15:30:00,
2013-02-04 10:31:00,65.0,65.0,30.06,NW,322,0.0,1.0,100,0.00,,,0.00,Wunderground v.1.15,2013-02-04 15:31:00,
2013-02-04 10:32:00,65.0,65.0,30.06,NW,322,0.0,1.0,100,0.00,,,0.00,Wunderground v.1.15,2013-02-04 15:32:00,
2013-02-04 10:33:00,65.2,65.2,30.06,NW,322,0.0,1.0,100,0.00,,,0.00,Wunderground v.1.15,2013-02-04 15:33:00,
2013-02-04 10:36:00,65.2,65.2,30.06,NW,322,0.0,1.0,100,0.00,,,0.00,Wunderground v.1.15,2013-02-04 15:36:00,
2013-02-04 10:38:00,65.3,65.3,30.06,NW,322,0.0,1.0,100,0.00,,,0.00,Wunderground v.1.15,2013-02-04 15:38:00,
2013-02-04 10:39:00,65.3,65.3,30.06,NW,322,0.0,1.0,100,0.00,,,0.00,Wunderground v.1.15,2013-02-04 15:39:00,
2013-02-04 10:40:00,65.5,65.5,30.06,NW,322,0.0,0.0,100,0.00,,,0.00,Wunderground v.1.15,2013-02-04 15:40:00,
2013-02-04 10:45:00,66.0,66.0,30.06,NW,322,0.0,2.0,100,0.00,,,0.00,Wunderground v.1.15,2013-02-04 15:45:00,
2013-02-04 10:46:00,66.0,66.0,30.05,NW,322,0.0,2.0,100,0.00,,,0.00,Wunderground v.1.15,2013-02-04 15:46:00,
2013-02-04 10:47:00,66.0,66.0,30.05,NW,322,0.0,2.0,100,0.00,,,0.00,Wunderground v.1.15,2013-02-04 15:47:00,
2013-02-04 10:50:00,66.1,66.1,30.05,NW,322,0.0,0.0,100,0.00,,,0.00,Wunderground v.1.15,2013-02-04 15:50:00,
2013-02-04 10:51:00,66.1,66.1,30.05,NW,322,0.0,0.0,100,0.00,,,0.00,Wunderground v.1.15,2013-02-04 15:51:00,
2013-02-04 10:53:00,66.1,66.1,30.05,NW,322,0.0,0.0,100,0.00,,,0.00,Wunderground v.1.15,2013-02-04 15:53:00,
2013-02-04 10:56:00,66.3,66.3,30.05,NW,322,0.0,1.0,100,0.00,,,0.00,Wunderground v.1.15,2013-02-04 15:56:00,
2013-02-04 10:57:00,66.3,66.3,30.05,NW,322,0.0,3.0,100,0.00,,,0.00,Wunderground v.1.15,2013-02-04 15:57:00,
2013-02-04 10:58:00,66.3,66.3,30.05,NW,322,0.0,3.0,100,0.00,,,0.00,Wunderground v.1.15,2013-02-04 15:58:00,
2013-02-04 10:59:00,66.3,66.3,30.05,NW,322,0.0,3.0,100,0.00,,,0.00,Wunderground v.1.15,2013-02-04 15:59:00,
2013-02-04 11:04:00,67.1,67.1,30.05,NW,304,1.0,1.0,100,0.00,,,0.00,Wunderground v.1.15,2013-02-04 16:04:00,
2013-02-04 11:05:00,67.3,67.3,30.05,NW,304,1.0,1.0,100,0.00,,,0.00,Wunderground v.1.15,2013-02-04 16:05:00,
2013-02-04 11:08:00,68.1,68.1,30.05,NW,304,0.0,1.0,100,0.00,,,0.00,Wunderground v.1.15,2013-02-04 16:08:00,
2013-02-04 11:10:00,68.4,68.4,30.05,NW,304,0.0,0.0,100,0.00,,,0.00,Wunderground v.1.15,2013-02-04 16:10:00,
2013-02-04 11:13:00,68.8,68.8,30.05,NW,304,0.0,1.0,100,0.00,,,0.00,Wunderground v.1.15,2013-02-04 16:13:00,
2013-02-04 11:15:00,68.9,68.9,30.05,SW,234,0.0,1.0,100,0.00,,,0.00,Wunderground v.1.15,2013-02-04 16:15:00,
2013-02-04 11:16:00,69.1,69.1,30.04,SSW,196,0.0,1.0,100,0.00,,,0.00,Wunderground v.1.15,2013-02-04 16:16:00,
2013-02-04 11:18:00,69.4,69.4,30.04,South,186,0.0,1.0,100,0.00,,,0.00,Wunderground v.1.15,2013-02-04 16:18:00,
2013-02-04 11:20:00,69.8,69.8,30.04,South,186,0.0,0.0,100,0.00,,,0.00,Wunderground v.1.15,2013-02-04 16:20:00,
2013-02-04 11:22:00,69.8,69.8,30.04,South,186,0.0,0.0,100,0.00,,,0.00,Wunderground v.1.15,2013-02-04 16:22:00,
2013-02-04 11:24:00,70.1,70.1,30.04,South,186,1.0,2.0,100,0.00,,,0.00,Wunderground v.1.15,2013-02-04 16:24:00,
2013-02-04 11:25:00,70.1,70.1,30.04,South,186,1.0,2.0,100,0.00,,,0.00,Wunderground v.1.15,2013-02-04 16:25:00,
2013-02-04 11:27:00,70.4,70.4,30.04,South,186,1.0,2.0,100,0.00,,,0.00,Wunderground v.1.15,2013-02-04 16:27:00,
2013-02-04 11:30:00,70.9,70.9,30.03,South,186,1.0,1.0,100,0.00,,,0.00,Wunderground v.1.15,2013-02-04 16:30:00,
2013-02-04 11:33:00,71.3,71.3,30.03,South,186,0.0,1.0,100,0.00,,,0.00,Wunderground v.1.15,2013-02-04 16:33:00,
2013-02-04 11:34:00,71.3,71.3,30.03,South,186,0.0,1.0,100,0.00,,,0.00,Wunderground v.1.15,2013-02-04 16:34:00,
2013-02-04 11:38:00,71.3,71.3,30.03,South,186,0.0,1.0,100,0.00,,,0.00,Wunderground v.1.15,2013-02-04 16:38:00,
2013-02-04 11:40:00,71.8,71.8,30.03,SSW,196,0.0,1.0,100,0.00,,,0.00,Wunderground v.1.15,2013-02-04 16:40:00,
2013-02-04 11:41:00,71.8,71.8,30.03,WSW,257,0.0,2.0,100,0.00,,,0.00,Wunderground v.1.15,2013-02-04 16:41:00,
2013-02-04 11:42:00,72.0,72.0,30.03,WSW,257,0.0,2.0,100,0.00,,,0.00,Wunderground v.1.15,2013-02-04 16:42:00,
2013-02-04 11:46:00,72.1,72.1,30.03,West,261,1.0,2.0,100,0.00,,,0.00,Wunderground v.1.15,2013-02-04 16:46:00,
2013-02-04 11:47:00,72.3,72.3,30.03,West,261,1.0,2.0,100,0.00,,,0.00,Wunderground v.1.15,2013-02-04 16:47:00,
2013-02-04 11:48:00,72.3,72.3,30.03,NW,325,1.0,2.0,100,0.00,,,0.00,Wunderground v.1.15,2013-02-04 16:48:00,
2013-02-04 11:52:00,72.0,72.0,30.03,NW,325,1.0,1.0,100,0.00,,,0.00,Wunderground v.1.15,2013-02-04 16:52:00,
2013-02-04 11:53:00,72.0,72.0,30.03,WNW,289,1.0,1.0,100,0.00,,,0.00,Wunderground v.1.15,2013-02-04 16:53:00,
2013-02-04 11:55:00,72.1,72.1,30.03,SW,229,1.0,3.0,100,0.00,,,0.00,Wunderground v.1.15,2013-02-04 16:55:00,
2013-02-04 11:56:00,72.1,72.1,30.03,SSW,192,1.0,3.0,100,0.00,,,0.00,Wunderground v.1.15,2013-02-04 16:56:00,
2013-02-04 11:58:00,72.3,72.3,30.03,SSW,192,1.0,3.0,100,0.00,,,0.00,Wunderground v.1.15,2013-02-04 16:58:00,
2013-02-04 11:59:00,72.5,72.5,30.03,SSW,192,1.0,3.0,100,0.00,,,0.00,Wunderground v.1.15,2013-02-04 16:59:00,
2013-02-04 12:01:00,72.8,72.8,30.02,South,186,1.0,1.0,100,0.00,,,0.00,Wunderground v.1.15,2013-02-04 17:01:00,
2013-02-04 12:03:00,73.0,73.0,30.02,South,186,1.0,3.0,100,0.00,,,0.00,Wunderground v.1.15,2013-02-04 17:03:00,
2013-02-04 12:04:00,73.0,73.0,30.02,South,186,1.0,3.0,100,0.00,,,0.00,Wunderground v.1.15,2013-02-04 17:04:00,
2013-02-04 12:05:00,73.0,73.0,30.02,South,186,1.0,3.0,100,0.00,,,0.00,Wunderground v.1.15,2013-02-04 17:05:00,
2013-02-04 12:08:00,73.3,73.3,30.02,SSW,200,1.0,3.0,100,0.00,,,0.00,Wunderground v.1.15,2013-02-04 17:08:00,
2013-02-04 12:10:00,73.5,73.5,30.02,SSW,200,1.0,1.0,100,0.00,,,0.00,Wunderground v.1.15,2013-02-04 17:10:00,
2013-02-04 12:11:00,73.7,73.7,30.02,SSW,200,1.0,1.0,100,0.00,,,0.00,Wunderground v.1.15,2013-02-04 17:11:00,
2013-02-04 12:12:00,73.7,73.7,30.02,SSW,200,1.0,1.0,100,0.00,,,0.00,Wunderground v.1.15,2013-02-04 17:12:00,
2013-02-04 12:15:00,73.7,73.7,30.01,SSW,209,1.0,2.0,100,0.00,,,0.00,Wunderground v.1.15,2013-02-04 17:15:00,
2013-02-04 12:18:00,73.9,73.9,30.01,SSW,209,0.0,2.0,100,0.00,,,0.00,Wunderground v.1.15,2013-02-04 17:18:00,
2013-02-04 12:19:00,73.9,73.9,30.01,SSW,212,0.0,3.0,100,0.00,,,0.00,Wunderground v.1.15,2013-02-04 17:19:00,
2013-02-04 12:22:00,73.3,73.3,30.01,NNW,342,1.0,6.0,100,0.00,,,0.00,Wunderground v.1.15,2013-02-04 17:22:00,
2013-02-04 12:25:00,72.3,72.3,30.01,NNW,339,3.0,8.0,100,0.00,,,0.00,Wunderground v.1.15,2013-02-04 17:25:00,
2013-02-04 12:26:00,72.1,72.1,30.01,NNW,339,3.0,8.0,100,0.00,,,0.00,Wunderground v.1.15,2013-02-04 17:26:00,
2013-02-04 12:31:00,72.7,72.7,30.00,SSE,168,3.0,4.0,100,0.00,,,0.00,Wunderground v.1.15,2013-02-04 17:31:00,
2013-02-04 12:32:00,73.0,73.0,30.00,SSE,168,3.0,4.0,100,0.00,,,0.00,Wunderground v.1.15,2013-02-04 17:32:00,
2013-02-04 12:33:00,73.2,73.2,30.00,SSE,168,3.0,4.0,100,0.00,,,0.00,Wunderground v.1.15,2013-02-04 17:33:00,
2013-02-04 12:34:00,73.3,73.3,30.00,WNW,296,2.0,4.0,100,0.00,,,0.00,Wunderground v.1.15,2013-02-04 17:34:00,
2013-02-04 12:38:00,74.2,74.2,30.00,WNW,291,1.0,4.0,100,0.00,,,0.00,Wunderground v.1.15,2013-02-04 17:38:00,
2013-02-04 12:39:00,74.4,74.4,30.00,WNW,291,1.0,4.0,100,0.00,,,0.00,Wunderground v.1.15,2013-02-04 17:39:00,
2013-02-04 12:41:00,74.6,74.6,30.00,WNW,289,0.0,1.0,100,0.00,,,0.00,Wunderground v.1.15,2013-02-04 17:41:00,
2013-02-04 12:44:00,74.9,74.9,30.00,SW,217,0.0,1.0,100,0.00,,,0.00,Wunderground v.1.15,2013-02-04 17:44:00,
2013-02-04 12:48:00,75.1,75.1,30.00,NW,304,1.0,3.0,100,0.00,,,0.00,Wunderground v.1.15,2013-02-04 17:48:00,
2013-02-04 12:49:00,74.9,74.9,30.00,NW,305,1.0,3.0,100,0.00,,,0.00,Wunderground v.1.15,2013-02-04 17:49:00,
2013-02-04 12:50:00,74.7,74.7,30.00,West,271,1.0,3.0,100,0.00,,,0.00,Wunderground v.1.15,2013-02-04 17:50:00,
2013-02-04 12:51:00,74.6,74.6,30.00,West,270,1.0,3.0,100,0.00,,,0.00,Wunderground v.1.15,2013-02-04 17:51:00,
2013-02-04 12:55:00,74.2,74.2,30.00,West,270,1.0,3.0,100,0.00,,,0.00,Wunderground v.1.15,2013-02-04 17:55:00,
2013-02-04 12:56:00,74.2,74.2,30.00,West,267,1.0,3.0,100,0.00,,,0.00,Wunderground v.1.15,2013-02-04 17:56:00,
2013-02-04 13:01:00,74.6,74.6,29.99,SW,229,1.0,2.0,100,0.00,,,0.00,Wunderground v.1.15,2013-02-04 18:01:00,
2013-02-04 13:03:00,74.7,74.7,29.99,SW,229,1.0,2.0,100,0.00,,,0.00,Wunderground v.1.15,2013-02-04 18:03:00,
2013-02-04 13:06:00,75.1,75.1,29.99,SE,134,1.0,2.0,100,0.00,,,0.00,Wunderground v.1.15,2013-02-04 18:06:00,
2013-02-04 13:07:00,75.3,75.3,29.99,SE,134,1.0,2.0,100,0.00,,,0.00,Wunderground v.1.15,2013-02-04 18:07:00,
2013-02-04 13:11:00,75.1,75.1,29.99,NW,323,1.0,6.0,100,0.00,,,0.00,Wunderground v.1.15,2013-02-04 18:11:00,
2013-02-04 13:12:00,74.9,74.9,29.99,NW,323,1.0,6.0,100,0.00,,,0.00,Wunderground v.1.15,2013-02-04 18:12:00,
2013-02-04 13:17:00,74.9,74.9,29.98,SW,215,1.0,6.0,100,0.00,,,0.00,Wunderground v.1.15,2013-02-04 18:17:00,
2013-02-04 13:18:00,74.9,74.9,29.98,SW,215,2.0,6.0,100,0.00,,,0.00,Wunderground v.1.15,2013-02-04 18:18:00,
2013-02-04 13:22:00,74.9,74.9,29.98,WSW,239,1.0,2.0,100,0.00,,,0.00,Wunderground v.1.15,2013-02-04 18:22:00,
2013-02-04 13:23:00,75.1,75.1,29.98,WSW,253,1.0,2.0,100,0.00,,,0.00,Wunderground v.1.15,2013-02-04 18:23:00,
2013-02-04 13:24:00,75.1,75.1,29.98,WSW,251,2.0,2.0,100,0.00,,,0.00,Wunderground v.1.15,2013-02-04 18:24:00,
2013-02-04 13:28:00,75.1,75.1,29.98,SSW,192,2.0,4.0,100,0.00,,,0.00,Wunderground v.1.15,2013-02-04 18:28:00,
2013-02-04 13:29:00,75.1,75.1,29.98,SSW,192,2.0,4.0,100,0.00,,,0.00,Wunderground v.1.15,2013-02-04 18:29:00,
2013-02-04 13:30:00,75.1,75.1,29.98,South,171,2.0,2.0,100,0.00,,,0.00,Wunderground v.1.15,2013-02-04 18:30:00,
2013-02-04 13:33:00,75.6,75.6,29.96,South,178,2.0,2.0,100,0.00,,,0.00,Wunderground v.1.15,2013-02-04 18:33:00,
2013-02-04 13:34:00,75.6,75.6,29.96,South,178,2.0,2.0,100,0.00,,,0.00,Wunderground v.1.15,2013-02-04 18:34:00,
2013-02-04 13:35:00,75.8,75.8,29.96,South,178,1.0,2.0,100,0.00,,,0.00,Wunderground v.1.15,2013-02-04 18:35:00,
2013-02-04 13:36:00,76.0,76.0,29.96,South,178,1.0,2.0,100,0.00,,,0.00,Wunderground v.1.15,2013-02-04 18:36:00,
2013-02-04 13:39:00,76.0,76.0,29.96,NNW,347,1.0,5.0,100,0.00,,,0.00,Wunderground v.1.15,2013-02-04 18:39:00,
2013-02-04 13:40:00,76.0,76.0,29.96,NW,315,1.0,1.0,100,0.00,,,0.00,Wunderground v.1.15,2013-02-04 18:40:00,
2013-02-04 13:43:00,76.1,76.1,29.96,WSW,253,1.0,5.0,100,0.00,,,0.00,Wunderground v.1.15,2013-02-04 18:43:00,
2013-02-04 13:45:00,76.1,76.1,29.96,WSW,253,1.0,5.0,100,0.00,,,0.00,Wunderground v.1.15,2013-02-04 18:45:00,
2013-02-04 13:49:00,76.5,76.5,29.96,South,186,1.0,5.0,100,0.00,,,0.00,Wunderground v.1.15,2013-02-04 18:49:00,
2013-02-04 13:50:00,76.5,76.5,29.96,South,186,1.0,2.0,100,0.00,,,0.00,Wunderground v.1.15,2013-02-04 18:50:00,
2013-02-04 13:52:00,76.1,76.1,29.96,SSW,198,1.0,2.0,100,0.00,,,0.00,Wunderground v.1.15,2013-02-04 18:52:00,
2013-02-04 13:55:00,76.1,76.1,29.96,SSW,198,1.0,2.0,100,0.00,,,0.00,Wunderground v.1.15,2013-02-04 18:55:00,
2013-02-04 13:56:00,76.1,76.1,29.96,SSW,198,1.0,2.0,100,0.00,,,0.00,Wunderground v.1.15,2013-02-04 18:56:00,
2013-02-04 13:57:00,76.1,76.1,29.96,SSW,198,1.0,2.0,100,0.00,,,0.00,Wunderground v.1.15,2013-02-04 18:57:00,
2013-02-04 13:59:00,76.3,76.3,29.96,SSW,198,1.0,2.0,100,0.00,,,0.00,Wunderground v.1.15,2013-02-04 18:59:00,
2013-02-04 14:02:00,76.0,76.0,29.96,SSW,198,0.0,1.0,100,0.00,,,0.00,Wunderground v.1.15,2013-02-04 19:02:00,
2013-02-04 14:04:00,76.0,76.0,29.96,SSW,199,0.0,2.0,100,0.00,,,0.00,Wunderground v.1.15,2013-02-04 19:04:00,
2013-02-04 14:06:00,75.6,75.6,29.96,SSW,199,1.0,2.0,100,0.00,,,0.00,Wunderground v.1.15,2013-02-04 19:06:00,
2013-02-04 14:10:00,75.4,75.4,29.96,SSE,165,1.0,3.0,100,0.00,,,0.00,Wunderground v.1.15,2013-02-04 19:10:00,
2013-02-04 14:11:00,75.6,75.6,29.96,South,189,1.0,3.0,100,0.00,,,0.00,Wunderground v.1.15,2013-02-04 19:11:00,
2013-02-04 14:12:00,75.6,75.6,29.96,SSW,199,2.0,4.0,100,0.00,,,0.00,Wunderground v.1.15,2013-02-04 19:12:00,
2013-02-04 14:15:00,76.0,76.0,29.96,SE,141,2.0,4.0,100,0.00,,,0.00,Wunderground v.1.15,2013-02-04 19:15:00,
2013-02-04 14:17:00,76.1,76.1,29.95,East,96,2.0,4.0,100,0.00,,,0.00,Wunderground v.1.15,2013-02-04 19:17:00,
2013-02-04 14:19:00,76.5,76.5,29.95,East,99,2.0,4.0,100,0.00,,,0.00,Wunderground v.1.15,2013-02-04 19:19:00,
2013-02-04 14:20:00,76.7,76.7,29.95,ESE,102,2.0,6.0,100,0.00,,,0.00,Wunderground v.1.15,2013-02-04 19:20:00,
2013-02-04 14:24:00,76.8,76.8,29.95,East,90,2.0,6.0,100,0.00,,,0.00,Wunderground v.1.15,2013-02-04 19:24:00,
2013-02-04 14:25:00,76.5,76.5,29.95,SE,144,3.0,6.0,100,0.00,,,0.00,Wunderground v.1.15,2013-02-04 19:25:00,
2013-02-04 14:26:00,76.5,76.5,29.95,ESE,104,3.0,6.0,100,0.00,,,0.00,Wunderground v.1.15,2013-02-04 19:26:00,
2013-02-04 14:30:00,76.1,76.1,29.95,East,88,4.0,4.0,100,0.00,,,0.00,Wunderground v.1.15,2013-02-04 19:30:00,
2013-02-04 14:32:00,76.1,76.1,29.95,SSE,158,4.0,7.0,100,0.00,,,0.00,Wunderground v.1.15,2013-02-04 19:32:00,
2013-02-04 14:36:00,75.8,75.8,29.95,South,185,4.0,7.0,100,0.00,,,0.00,Wunderground v.1.15,2013-02-04 19:36:00,
2013-02-04 14:37:00,75.4,75.4,29.95,South,185,4.0,7.0,100,0.00,,,0.00,Wunderground v.1.15,2013-02-04 19:37:00,
2013-02-04 14:39:00,74.9,74.9,29.95,SSW,192,4.0,7.0,100,0.00,,,0.00,Wunderground v.1.15,2013-02-04 19:39:00,
2013-02-04 14:40:00,74.9,74.9,29.95,South,172,4.0,4.0,100,0.00,,,0.00,Wunderground v.1.15,2013-02-04 19:40:00,
2013-02-04 14:44:00,74.4,74.4,29.95,SSE,160,4.0,5.0,100,0.00,,,0.00,Wunderground v.1.15,2013-02-04 19:44:00,
2013-02-04 14:45:00,74.4,74.4,29.95,SSE,157,3.0,5.0,100,0.00,,,0.00,Wunderground v.1.15,2013-02-04 19:45:00,
2013-02-04 14:46:00,74.4,74.4,29.94,SSE,151,3.0,5.0,100,0.00,,,0.00,Wunderground v.1.15,2013-02-04 19:46:00,
2013-02-04 14:49:00,74.0,74.0,29.94,SSE,161,3.0,5.0,100,0.00,,,0.00,Wunderground v.1.15,2013-02-04 19:49:00,
2013-02-04 14:50:00,74.0,74.0,29.94,SSE,164,4.0,6.0,100,0.00,,,0.00,Wunderground v.1.15,2013-02-04 19:50:00,
2013-02-04 14:51:00,74.0,74.0,29.94,SSE,167,4.0,6.0,100,0.00,,,0.00,Wunderground v.1.15,2013-02-04 19:51:00,
2013-02-04 14:56:00,74.4,74.4,29.94,South,171,4.0,6.0,100,0.00,,,0.00,Wunderground v.1.15,2013-02-04 19:56:00,
2013-02-04 14:57:00,74.2,74.2,29.94,SE,130,4.0,6.0,100,0.00,,,0.00,Wunderground v.1.15,2013-02-04 19:57:00,
2013-02-04 14:58:00,74.2,74.2,29.94,South,178,4.0,6.0,100,0.00,,,0.00,Wunderground v.1.15,2013-02-04 19:58:00,
2013-02-04 14:59:00,73.9,73.9,29.94,SSE,165,4.0,8.0,100,0.00,,,0.00,Wunderground v.1.15,2013-02-04 19:59:00,
2013-02-04 15:03:00,73.9,73.9,29.94,ESE,113,4.0,4.0,100,0.00,,,0.00,Wunderground v.1.15,2013-02-04 20:03:00,
2013-02-04 15:05:00,73.7,73.7,29.94,SE,127,4.0,5.0,100,0.00,,,0.00,Wunderground v.1.15,2013-02-04 20:05:00,
2013-02-04 15:06:00,73.7,73.7,29.94,SE,143,4.0,5.0,100,0.00,,,0.00,Wunderground v.1.15,2013-02-04 20:06:00,
2013-02-04 15:10:00,73.5,73.5,29.94,South,171,4.0,6.0,100,0.00,,,0.00,Wunderground v.1.15,2013-02-04 20:10:00,
2013-02-04 15:11:00,73.3,73.3,29.94,SSE,152,4.0,6.0,100,0.00,,,0.00,Wunderground v.1.15,2013-02-04 20:11:00,
2013-02-04 15:12:00,73.3,73.3,29.94,SSE,167,5.0,6.0,100,0.00,,,0.00,Wunderground v.1.15,2013-02-04 20:12:00,
2013-02-04 15:13:00,73.2,73.2,29.94,SSE,167,5.0,6.0,100,0.00,,,0.00,Wunderground v.1.15,2013-02-04 20:13:00,
2013-02-04 15:16:00,73.0,73.0,29.95,SSE,151,4.0,6.0,100,0.00,,,0.00,Wunderground v.1.15,2013-02-04 20:16:00,
2013-02-04 15:17:00,73.2,73.2,29.95,SE,140,4.0,6.0,100,0.00,,,0.00,Wunderground v.1.15,2013-02-04 20:17:00,
2013-02-04 15:18:00,73.2,73.2,29.95,SE,141,4.0,6.0,100,0.00,,,0.00,Wunderground v.1.15,2013-02-04 20:18:00,
2013-02-04 15:19:00,73.3,73.3,29.95,SSE,162,4.0,6.0,100,0.00,,,0.00,Wunderground v.1.15,2013-02-04 20:19:00,
2013-02-04 15:22:00,73.5,73.5,29.95,SSE,158,4.0,4.0,100,0.00,,,0.00,Wunderground v.1.15,2013-02-04 20:22:00,
2013-02-04 15:24:00,73.7,73.7,29.95,South,178,3.0,8.0,100,0.00,,,0.00,Wunderground v.1.15,2013-02-04 20:24:00,
2013-02-04 15:25:00,73.9,73.9,29.95,SSE,165,3.0,8.0,100,0.00,,,0.00,Wunderground v.1.15,2013-02-04 20:25:00,
2013-02-04 15:28:00,74.0,74.0,29.95,SE,141,4.0,8.0,100,0.00,,,0.00,Wunderground v.1.15,2013-02-04 20:28:00,
2013-02-04 15:30:00,74.0,74.0,29.94,South,181,3.0,3.0,100,0.00,,,0.00,Wunderground v.1.15,2013-02-04 20:30:00,
2013-02-04 15:31:00,74.2,74.2,29.94,SSE,151,3.0,3.0,100,0.00,,,0.00,Wunderground v.1.15,2013-02-04 20:31:00,
2013-02-04 15:32:00,74.2,74.2,29.94,SSE,158,4.0,6.0,100,0.00,,,0.00,Wunderground v.1.15,2013-02-04 20:32:00,
2013-02-04 15:33:00,74.0,74.0,29.94,SSE,152,4.0,6.0,100,0.00,,,0.00,Wunderground v.1.15,2013-02-04 20:33:00,
2013-02-04 15:36:00,74.0,74.0,29.94,SSE,164,4.0,7.0,100,0.00,,,0.00,Wunderground v.1.15,2013-02-04 20:36:00,
2013-02-04 15:37:00,74.2,74.2,29.94,SSE,162,3.0,7.0,100,0.00,,,0.00,Wunderground v.1.15,2013-02-04 20:37:00,
2013-02-04 15:40:00,74.4,74.4,29.94,ESE,114,3.0,3.0,100,0.00,,,0.00,Wunderground v.1.15,2013-02-04 20:40:00,
2013-02-04 15:41:00,74.4,74.4,29.94,SSE,158,3.0,3.0,100,0.00,,,0.00,Wunderground v.1.15,2013-02-04 20:41:00,
2013-02-04 15:42:00,74.4,74.4,29.94,ESE,102,3.0,5.0,100,0.00,,,0.00,Wunderground v.1.15,2013-02-04 20:42:00,
2013-02-04 15:43:00,74.4,74.4,29.94,SSE,147,3.0,5.0,100,0.00,,,0.00,Wunderground v.1.15,2013-02-04 20:43:00,
2013-02-04 15:47:00,74.9,74.9,29.94,SSE,147,3.0,5.0,100,0.00,,,0.00,Wunderground v.1.15,2013-02-04 20:47:00,
2013-02-04 15:48:00,74.7,74.7,29.94,SSE,147,3.0,5.0,100,0.00,,,0.00,Wunderground v.1.15,2013-02-04 20:48:00,
2013-02-04 15:49:00,74.9,74.9,29.94,SSE,164,3.0,5.0,100,0.00,,,0.00,Wunderground v.1.15,2013-02-04 20:49:00,
2013-02-04 15:51:00,74.9,74.9,29.94,South,191,3.0,9.0,100,0.00,,,0.00,Wunderground v.1.15,2013-02-04 20:51:00,
2013-02-04 15:55:00,74.0,74.0,29.94,SSW,208,4.0,9.0,100,0.00,,,0.00,Wunderground v.1.15,2013-02-04 20:55:00,
2013-02-04 15:56:00,73.9,73.9,29.94,SE,128,4.0,9.0,100,0.00,,,0.00,Wunderground v.1.15,2013-02-04 20:56:00,
2013-02-04 15:57:00,73.7,73.7,29.94,South,189,4.0,9.0,100,0.00,,,0.00,Wunderground v.1.15,2013-02-04 20:57:00,
2013-02-04 16:00:00,73.7,73.7,29.94,SSW,202,4.0,4.0,100,0.00,,,0.00,Wunderground v.1.15,2013-02-04 21:00:00,
2013-02-04 16:02:00,73.5,73.5,29.94,SSE,154,4.0,4.0,100,0.00,,,0.00,Wunderground v.1.15,2013-02-04 21:02:00,
2013-02-04 16:04:00,73.3,73.3,29.94,SSE,167,4.0,4.0,100,0.00,,,0.00,Wunderground v.1.15,2013-02-04 21:04:00,
2013-02-04 16:05:00,73.3,73.3,29.94,SE,145,3.0,5.0,100,0.00,,,0.00,Wunderground v.1.15,2013-02-04 21:05:00,
2013-02-04 16:06:00,73.2,73.2,29.94,SSE,157,3.0,5.0,100,0.00,,,0.00,Wunderground v.1.15,2013-02-04 21:06:00,
2013-02-04 16:10:00,73.0,73.0,29.94,SSW,199,2.0,2.0,100,0.00,,,0.00,Wunderground v.1.15,2013-02-04 21:10:00,
2013-02-04 16:11:00,73.0,73.0,29.94,SSW,195,2.0,6.0,100,0.00,,,0.00,Wunderground v.1.15,2013-02-04 21:11:00,
2013-02-04 16:12:00,72.8,72.8,29.94,South,176,2.0,6.0,100,0.00,,,0.00,Wunderground v.1.15,2013-02-04 21:12:00,
2013-02-04 16:15:00,72.7,72.7,29.94,SSE,155,2.0,6.0,100,0.00,,,0.00,Wunderground v.1.15,2013-02-04 21:15:00,
2013-02-04 16:20:00,72.7,72.7,29.95,SSE,167,3.0,7.0,100,0.00,,,0.00,Wunderground v.1.15,2013-02-04 21:20:00,
2013-02-04 16:21:00,72.7,72.7,29.95,South,188,3.0,7.0,100,0.00,,,0.00,Wunderground v.1.15,2013-02-04 21:21:00,
2013-02-04 16:22:00,72.5,72.5,29.95,SE,130,3.0,7.0,100,0.00,,,0.00,Wunderground v.1.15,2013-02-04 21:22:00,
2013-02-04 16:25:00,72.3,72.3,29.95,SSE,155,3.0,7.0,100,0.00,,,0.00,Wunderground v.1.15,2013-02-04 21:25:00,
2013-02-04 16:27:00,72.5,72.5,29.95,SSE,151,3.0,7.0,100,0.00,,,0.00,Wunderground v.1.15,2013-02-04 21:27:00,
2013-02-04 16:30:00,72.5,72.5,29.94,South,174,3.0,5.0,100,0.00,,,0.00,Wunderground v.1.15,2013-02-04 21:30:00,
2013-02-04 16:31:00,72.5,72.5,29.94,ESE,106,3.0,5.0,100,0.00,,,0.00,Wunderground v.1.15,2013-02-04 21:31:00,
2013-02-04 16:33:00,72.5,72.5,29.94,ESE,110,3.0,5.0,100,0.00,,,0.00,Wunderground v.1.15,2013-02-04 21:33:00,
2013-02-04 16:37:00,72.3,72.3,29.94,South,171,3.0,5.0,100,0.00,,,0.00,Wunderground v.1.15,2013-02-04 21:37:00,
2013-02-04 16:39:00,72.3,72.3,29.94,South,171,2.0,5.0,100,0.00,,,0.00,Wunderground v.1.15,2013-02-04 21:39:00,
2013-02-04 16:40:00,72.3,72.3,29.94,South,169,2.0,2.0,100,0.00,,,0.00,Wunderground v.1.15,2013-02-04 21:40:00,
2013-02-04 16:41:00,72.3,72.3,29.94,South,169,2.0,2.0,100,0.00,,,0.00,Wunderground v.1.15,2013-02-04 21:41:00,
2013-02-04 16:44:00,72.3,72.3,29.94,South,171,1.0,2.0,100,0.00,,,0.00,Wunderground v.1.15,2013-02-04 21:44:00,
2013-02-04 16:45:00,72.3,72.3,29.94,South,171,1.0,2.0,100,0.00,,,0.00,Wunderground v.1.15,2013-02-04 21:45:00,
2013-02-04 16:46:00,72.3,72.3,29.95,South,171,1.0,2.0,100,0.00,,,0.00,Wunderground v.1.15,2013-02-04 21:46:00,
2013-02-04 16:50:00,72.5,72.5,29.95,SSE,158,0.0,5.0,100,0.00,,,0.00,Wunderground v.1.15,2013-02-04 21:50:00,
2013-02-04 16:51:00,72.5,72.5,29.95,SSE,157,1.0,5.0,100,0.00,,,0.00,Wunderground v.1.15,2013-02-04 21:51:00,
2013-02-04 16:55:00,72.5,72.5,29.95,SSE,158,1.0,5.0,100,0.00,,,0.00,Wunderground v.1.15,2013-02-04 21:55:00,
2013-02-04 16:58:00,72.7,72.7,29.95,SE,145,1.0,5.0,100,0.00,,,0.00,Wunderground v.1.15,2013-02-04 21:58:00,
2013-02-04 17:00:00,72.5,72.5,29.95,SE,145,2.0,4.0,100,0.00,,,0.00,Wunderground v.1.15,2013-02-04 22:00:00,
2013-02-04 17:02:00,72.5,72.5,29.95,SSE,164,2.0,6.0,100,0.00,,,0.00,Wunderground v.1.15,2013-02-04 22:02:00,
2013-02-04 17:03:00,72.5,72.5,29.95,South,169,2.0,6.0,100,0.00,,,0.00,Wunderground v.1.15,2013-02-04 22:03:00,
2013-02-04 17:05:00,72.5,72.5,29.95,SSE,162,2.0,6.0,100,0.00,,,0.00,Wunderground v.1.15,2013-02-04 22:05:00,
2013-02-04 17:10:00,72.5,72.5,29.95,SSE,155,3.0,3.0,100,0.00,,,0.00,Wunderground v.1.15,2013-02-04 22:10:00,
2013-02-04 17:12:00,72.7,72.7,29.95,SSE,155,3.0,3.0,100,0.00,,,0.00,Wunderground v.1.15,2013-02-04 22:12:00,
2013-02-04 17:14:00,72.7,72.7,29.95,ESE,114,3.0,3.0,100,0.00,,,0.00,Wunderground v.1.15,2013-02-04 22:14:00,
2013-02-04 17:15:00,72.7,72.7,29.95,South,178,3.0,3.0,100,0.00,,,0.00,Wunderground v.1.15,2013-02-04 22:15:00,
2013-02-04 17:16:00,72.7,72.7,29.95,South,184,2.0,3.0,100,0.00,,,0.00,Wunderground v.1.15,2013-02-04 22:16:00,
2013-02-04 17:19:00,72.5,72.5,29.95,SSW,200,3.0,7.0,100,0.00,,,0.00,Wunderground v.1.15,2013-02-04 22:19:00,
2013-02-04 17:21:00,72.3,72.3,29.95,SSE,157,3.0,6.0,100,0.00,,,0.00,Wunderground v.1.15,2013-02-04 22:21:00,
2013-02-04 17:23:00,72.1,72.1,29.95,SSE,151,3.0,6.0,100,0.00,,,0.00,Wunderground v.1.15,2013-02-04 22:23:00,
2013-02-04 17:26:00,71.8,71.8,29.95,SSE,167,4.0,6.0,100,0.00,,,0.00,Wunderground v.1.15,2013-02-04 22:26:00,
2013-02-04 17:28:00,71.6,71.6,29.95,South,175,4.0,6.0,100,0.00,,,0.00,Wunderground v.1.15,2013-02-04 22:28:00,
2013-02-04 17:30:00,71.6,-99.9,29.95,SE,134,4.0,7.0,0,0.00,,,0.00,Wunderground v.1.15,2013-02-04 22:30:00,
2013-02-04 17:31:00,71.5,-99.9,29.95,SSE,155,4.0,8.0,0,0.00,,,0.00,Wunderground v.1.15,2013-02-04 22:31:00,
2013-02-04 17:32:00,71.5,-99.9,29.95,SSE,167,4.0,8.0,0,0.00,,,0.00,Wunderground v.1.15,2013-02-04 22:32:00,
2013-02-04 17:34:00,71.5,-99.9,29.95,SSE,164,3.0,8.0,0,0.00,,,0.00,Wunderground v.1.15,2013-02-04 22:34:00,
2013-02-04 17:36:00,71.3,-99.9,29.95,South,171,3.0,8.0,0,0.00,,,0.00,Wunderground v.1.15,2013-02-04 22:36:00,
2013-02-04 17:37:00,71.1,-99.9,29.95,SSE,162,3.0,8.0,0,0.00,,,0.00,Wunderground v.1.15,2013-02-04 22:37:00,
2013-02-04 17:41:00,70.9,-99.9,29.95,SSE,154,3.0,6.0,0,0.00,,,0.00,Wunderground v.1.15,2013-02-04 22:41:00,
2013-02-04 17:42:00,70.9,-99.9,29.95,SSE,168,3.0,6.0,0,0.00,,,0.00,Wunderground v.1.15,2013-02-04 22:42:00,
2013-02-04 17:44:00,70.8,-99.9,29.95,SSE,154,3.0,6.0,0,0.00,,,0.00,Wunderground v.1.15,2013-02-04 22:44:00,
2013-02-04 17:45:00,70.8,-99.9,29.95,SSE,154,3.0,6.0,0,0.00,,,0.00,Wunderground v.1.15,2013-02-04 22:45:00,
2013-02-04 17:49:00,70.6,-99.9,29.95,SSE,155,3.0,6.0,0,0.00,,,0.00,Wunderground v.1.15,2013-02-04 22:49:00,
2013-02-04 17:50:00,70.6,-99.9,29.95,SSE,157,2.0,2.0,0,0.00,,,0.00,Wunderground v.1.15,2013-02-04 22:50:00,
2013-02-04 17:53:00,70.6,-99.9,29.95,SSE,152,1.0,2.0,0,0.00,,,0.00,Wunderground v.1.15,2013-02-04 22:53:00,
2013-02-04 17:56:00,70.4,-99.9,29.95,SSE,157,1.0,2.0,0,0.00,,,0.00,Wunderground v.1.15,2013-02-04 22:56:00,
2013-02-04 17:58:00,70.3,-99.9,29.95,SSE,157,0.0,2.0,0,0.00,,,0.00,Wunderground v.1.15,2013-02-04 22:58:00,
2013-02-04 17:59:00,70.3,-99.9,29.95,SSE,158,1.0,2.0,0,0.00,,,0.00,Wunderground v.1.15,2013-02-04 22:59:00,
2013-02-04 18:00:00,70.3,-99.9,29.96,SSE,157,1.0,1.0,0,0.00,,,0.00,Wunderground v.1.15,2013-02-04 23:00:00,
2013-02-04 18:04:00,69.9,-99.9,29.96,SSW,202,0.0,6.0,0,0.00,,,0.00,Wunderground v.1.15,2013-02-04 23:04:00,
2013-02-04 18:06:00,69.9,-99.9,29.96,SSW,199,1.0,6.0,0,0.00,,,0.00,Wunderground v.1.15,2013-02-04 23:06:00,
2013-02-04 18:07:00,69.9,-99.9,29.96,South,184,1.0,6.0,0,0.00,,,0.00,Wunderground v.1.15,2013-02-04 23:07:00,
2013-02-04 18:08:00,69.8,-99.9,29.96,South,181,1.0,6.0,0,0.00,,,0.00,Wunderground v.1.15,2013-02-04 23:08:00,
2013-02-04 18:11:00,69.8,-99.9,29.96,South,181,1.0,1.0,0,0.00,,,0.00,Wunderground v.1.15,2013-02-04 23:11:00,
2013-02-04 18:12:00,69.8,-99.9,29.96,South,181,1.0,1.0,0,0.00,,,0.00,Wunderground v.1.15,2013-02-04 23:12:00,
2013-02-04 18:13:00,69.8,-99.9,29.96,South,181,1.0,1.0,0,0.00,,,0.00,Wunderground v.1.15,2013-02-04 23:13:00,
2013-02-04 18:17:00,69.4,-99.9,29.96,South,181,0.0,1.0,0,0.00,,,0.00,Wunderground v.1.15,2013-02-04 23:17:00,
2013-02-04 18:19:00,69.4,-99.9,29.96,South,181,0.0,1.0,0,0.00,,,0.00,Wunderground v.1.15,2013-02-04 23:19:00,
2013-02-04 18:20:00,69.4,-99.9,29.96,South,181,0.0,0.0,0,0.00,,,0.00,Wunderground v.1.15,2013-02-04 23:20:00,
2013-02-04 18:21:00,69.4,-99.9,29.96,South,181,0.0,0.0,0,0.00,,,0.00,Wunderground v.1.15,2013-02-04 23:21:00,
2013-02-04 18:24:00,69.1,-99.9,29.96,South,181,0.0,0.0,0,0.00,,,0.00,Wunderground v.1.15,2013-02-04 23:24:00,
2013-02-04 18:25:00,69.1,-99.9,29.96,South,181,0.0,0.0,0,0.00,,,0.00,Wunderground v.1.15,2013-02-04 23:25:00,
2013-02-04 18:26:00,69.1,-99.9,29.96,South,181,0.0,0.0,0,0.00,,,0.00,Wunderground v.1.15,2013-02-04 23:26:00,
2013-02-04 18:27:00,68.9,-99.9,29.96,South,181,0.0,0.0,0,0.00,,,0.00,Wunderground v.1.15,2013-02-04 23:27:00,
2013-02-04 18:32:00,68.8,-99.9,29.96,South,181,0.0,0.0,0,0.00,,,0.00,Wunderground v.1.15,2013-02-04 23:32:00,
2013-02-04 18:33:00,68.6,-99.9,29.96,South,181,0.0,0.0,0,0.00,,,0.00,Wunderground v.1.15,2013-02-04 23:33:00,
2013-02-04 18:37:00,68.4,-99.9,29.96,South,181,0.0,0.0,0,0.00,,,0.00,Wunderground v.1.15,2013-02-04 23:37:00,
2013-02-04 18:38:00,68.4,-99.9,29.96,South,181,0.0,0.0,0,0.00,,,0.00,Wunderground v.1.15,2013-02-04 23:38:00,
2013-02-04 18:39:00,68.3,-99.9,29.96,South,181,0.0,0.0,0,0.00,,,0.00,Wunderground v.1.15,2013-02-04 23:39:00,
2013-02-04 18:41:00,68.1,-99.9,29.96,South,181,0.0,0.0,0,0.00,,,0.00,Wunderground v.1.15,2013-02-04 23:41:00,
2013-02-04 18:45:00,67.9,-99.9,29.96,South,181,0.0,0.0,255,0.00,,,0.00,Wunderground v.1.15,2013-02-04 23:45:00,
2013-02-04 18:46:00,67.8,-99.9,29.96,South,181,0.0,0.0,255,0.00,,,0.00,Wunderground v.1.15,2013-02-04 23:46:00,
2013-02-04 18:47:00,67.8,-99.9,29.96,South,181,0.0,0.0,0,0.00,,,0.00,Wunderground v.1.15,2013-02-04 23:47:00,
2013-02-04 18:51:00,67.4,-99.9,29.96,South,181,0.0,0.0,0,0.00,,,0.00,Wunderground v.1.15,2013-02-04 23:51:00,
2013-02-04 18:53:00,67.3,-36.9,29.96,South,181,0.0,0.0,1,0.00,,,0.00,Wunderground v.1.15,2013-02-04 23:53:00,
2013-02-04 18:54:00,67.3,-36.9,29.96,South,181,0.0,0.0,1,0.00,,,0.00,Wunderground v.1.15,2013-02-04 23:54:00,
2013-02-04 18:59:00,66.9,-24.5,29.96,South,181,0.0,0.0,2,0.00,,,0.00,Wunderground v.1.15,2013-02-04 23:59:00,
2013-02-04 19:01:00,66.8,-24.5,29.97,South,181,0.0,0.0,2,0.00,,,0.00,Wunderground v.1.15,2013-02-05 00:01:00,
2013-02-04 19:02:00,66.8,-16.7,29.97,South,181,0.0,0.0,3,0.00,,,0.00,Wunderground v.1.15,2013-02-05 00:02:00,
2013-02-04 19:05:00,66.6,-11.2,29.97,South,181,0.0,0.0,4,0.00,,,0.00,Wunderground v.1.15,2013-02-05 00:05:00,
2013-02-04 19:07:00,66.4,-6.7,29.97,South,181,0.0,0.0,5,0.00,,,0.00,Wunderground v.1.15,2013-02-05 00:07:00,
2013-02-04 19:09:00,66.3,-6.8,29.97,South,181,0.0,0.0,5,0.00,,,0.00,Wunderground v.1.15,2013-02-05 00:09:00,
2013-02-04 19:11:00,66.3,-6.8,29.97,South,181,0.0,0.0,5,0.00,,,0.00,Wunderground v.1.15,2013-02-05 00:11:00,
2013-02-04 19:13:00,66.1,0.1,29.97,South,181,0.0,0.0,7,0.00,,,0.00,Wunderground v.1.15,2013-02-05 00:13:00,
2013-02-04 19:14:00,66.0,0.0,29.97,South,181,0.0,0.0,7,0.00,,,0.00,Wunderground v.1.15,2013-02-05 00:14:00,
2013-02-04 19:15:00,66.0,2.9,29.97,South,181,0.0,0.0,8,0.00,,,0.00,Wunderground v.1.15,2013-02-05 00:15:00,
2013-02-04 19:18:00,65.8,5.3,29.97,South,181,0.0,0.0,9,0.00,,,0.00,Wunderground v.1.15,2013-02-05 00:18:00,
2013-02-04 19:20:00,65.6,5.2,29.97,South,181,0.0,0.0,9,0.00,,,0.00,Wunderground v.1.15,2013-02-05 00:20:00,
2013-02-04 19:21:00,65.6,7.5,29.97,South,181,0.0,0.0,10,0.00,,,0.00,Wunderground v.1.15,2013-02-05 00:21:00,
2013-02-04 19:23:00,65.5,9.5,29.97,South,181,0.0,0.0,11,0.00,,,0.00,Wunderground v.1.15,2013-02-05 00:23:00,
2013-02-04 19:27:00,65.3,11.3,29.97,South,181,0.0,0.0,12,0.00,,,0.00,Wunderground v.1.15,2013-02-05 00:27:00,
2013-02-04 19:28:00,65.2,11.2,29.97,South,181,0.0,0.0,12,0.00,,,0.00,Wunderground v.1.15,2013-02-05 00:28:00,
2013-02-04 19:29:00,65.2,13.0,29.97,South,181,0.0,0.0,13,0.00,,,0.00,Wunderground v.1.15,2013-02-05 00:29:00,
2013-02-04 19:33:00,65.0,14.6,29.97,South,181,0.0,0.0,14,0.00,,,0.00,Wunderground v.1.15,2013-02-05 00:33:00,
2013-02-04 19:35:00,64.8,16.0,29.97,South,181,0.0,0.0,15,0.00,,,0.00,Wunderground v.1.15,2013-02-05 00:35:00,
2013-02-04 19:39:00,64.7,18.8,29.97,South,181,0.0,0.0,17,0.00,,,0.00,Wunderground v.1.15,2013-02-05 00:39:00,
2013-02-04 19:40:00,64.5,18.7,29.97,South,181,0.0,0.0,17,0.00,,,0.00,Wunderground v.1.15,2013-02-05 00:40:00,
2013-02-04 19:41:00,64.5,18.7,29.97,South,181,0.0,0.0,17,0.00,,,0.00,Wunderground v.1.15,2013-02-05 00:41:00,
2013-02-04 19:44:00,64.3,21.1,29.97,South,181,0.0,0.0,19,0.00,,,0.00,Wunderground v.1.15,2013-02-05 00:44:00,
2013-02-04 19:45:00,64.3,22.3,29.98,South,181,0.0,0.0,20,0.00,,,0.00,Wunderground v.1.15,2013-02-05 00:45:00,
2013-02-04 19:46:00,64.3,22.3,29.98,South,181,0.0,0.0,20,0.00,,,0.00,Wunderground v.1.15,2013-02-05 00:46:00,
2013-02-04 19:47:00,64.2,22.2,29.98,South,181,0.0,0.0,20,0.00,,,0.00,Wunderground v.1.15,2013-02-05 00:47:00,
2013-02-04 19:50:00,64.0,24.4,29.98,South,181,0.0,0.0,22,0.00,,,0.00,Wunderground v.1.15,2013-02-05 00:50:00,
2013-02-04 19:52:00,64.0,26.4,29.98,South,181,0.0,0.0,24,0.00,,,0.00,Wunderground v.1.15,2013-02-05 00:52:00,
2013-02-04 19:55:00,63.9,27.4,29.98,South,181,0.0,0.0,25,0.00,,,0.00,Wunderground v.1.15,2013-02-05 00:55:00,
2013-02-04 19:57:00,63.9,28.3,29.98,South,181,0.0,0.0,26,0.00,,,0.00,Wunderground v.1.15,2013-02-05 00:57:00,
2013-02-04 19:59:00,63.9,28.3,29.98,South,181,0.0,0.0,26,0.00,,,0.00,Wunderground v.1.15,2013-02-05 00:59:00,
2013-02-04 20:02:00,63.9,28.3,29.98,South,181,0.0,0.0,26,0.00,,,0.00,Wunderground v.1.15,2013-02-05 01:02:00,
2013-02-04 20:04:00,63.4,27.9,29.98,South,181,0.0,0.0,26,0.00,,,0.00,Wunderground v.1.15,2013-02-05 01:04:00,
2013-02-04 20:06:00,63.2,29.5,29.98,South,181,0.0,0.0,28,0.00,,,0.00,Wunderground v.1.15,2013-02-05 01:06:00,
2013-02-04 20:08:00,63.2,30.4,29.98,South,181,0.0,0.0,29,0.00,,,0.00,Wunderground v.1.15,2013-02-05 01:08:00,
2013-02-04 20:11:00,63.2,31.2,29.98,South,181,0.0,0.0,30,0.00,,,0.00,Wunderground v.1.15,2013-02-05 01:11:00,
2013-02-04 20:13:00,63.1,31.9,29.98,South,181,0.0,0.0,31,0.00,,,0.00,Wunderground v.1.15,2013-02-05 01:13:00,
2013-02-04 20:15:00,63.1,31.9,29.98,South,181,0.0,0.0,31,0.00,,,0.00,Wunderground v.1.15,2013-02-05 01:15:00,
2013-02-04 20:17:00,62.9,32.6,29.98,South,181,0.0,0.0,32,0.00,,,0.00,Wunderground v.1.15,2013-02-05 01:17:00,
2013-02-04 20:21:00,62.7,33.9,29.98,South,181,0.0,0.0,34,0.00,,,0.00,Wunderground v.1.15,2013-02-05 01:21:00,
2013-02-04 20:24:00,62.6,34.5,29.98,South,181,0.0,0.0,35,0.00,,,0.00,Wunderground v.1.15,2013-02-05 01:24:00,
2013-02-04 20:26:00,62.6,34.5,29.98,South,181,0.0,0.0,35,0.00,,,0.00,Wunderground v.1.15,2013-02-05 01:26:00,
2013-02-04 20:29:00,62.4,35.1,29.98,South,181,0.0,0.0,36,0.00,,,0.00,Wunderground v.1.15,2013-02-05 01:29:00,
2013-02-04 20:30:00,62.4,35.1,29.98,South,181,0.0,0.0,36,0.00,,,0.00,Wunderground v.1.15,2013-02-05 01:30:00,
2013-02-04 20:31:00,62.4,35.1,29.98,South,181,0.0,0.0,36,0.00,,,0.00,Wunderground v.1.15,2013-02-05 01:31:00,
2013-02-04 20:33:00,62.3,36.4,29.98,South,181,0.0,0.0,38,0.00,,,0.00,Wunderground v.1.15,2013-02-05 01:33:00,
2013-02-04 20:36:00,62.3,37.0,29.98,South,181,0.0,0.0,39,0.00,,,0.00,Wunderground v.1.15,2013-02-05 01:36:00,
2013-02-04 20:38:00,62.1,36.8,29.98,South,181,0.0,0.0,39,0.00,,,0.00,Wunderground v.1.15,2013-02-05 01:38:00,
2013-02-04 20:41:00,62.0,38.0,29.98,South,181,0.0,0.0,41,0.00,,,0.00,Wunderground v.1.15,2013-02-05 01:41:00,
2013-02-04 20:42:00,62.0,38.0,29.98,South,181,0.0,0.0,41,0.00,,,0.00,Wunderground v.1.15,2013-02-05 01:42:00,
2013-02-04 20:46:00,62.0,39.2,29.99,South,181,0.0,0.0,43,0.00,,,0.00,Wunderground v.1.15,2013-02-05 01:46:00,
2013-02-04 20:47:00,61.8,39.6,29.99,South,181,0.0,0.0,44,0.00,,,0.00,Wunderground v.1.15,2013-02-05 01:47:00,
2013-02-04 20:48:00,61.8,39.6,29.99,South,181,0.0,0.0,44,0.00,,,0.00,Wunderground v.1.15,2013-02-05 01:48:00,
2013-02-04 20:53:00,61.8,40.8,29.99,South,181,0.0,0.0,46,0.00,,,0.00,Wunderground v.1.15,2013-02-05 01:53:00,
2013-02-04 20:54:00,61.6,40.6,29.99,South,181,0.0,0.0,46,0.00,,,0.00,Wunderground v.1.15,2013-02-05 01:54:00,
2013-02-04 20:55:00,61.6,41.2,29.99,South,181,0.0,0.0,47,0.00,,,0.00,Wunderground v.1.15,2013-02-05 01:55:00,
2013-02-04 20:59:00,61.6,42.2,29.99,South,181,0.0,0.0,49,0.00,,,0.00,Wunderground v.1.15,2013-02-05 01:59:00,
2013-02-04 21:00:00,61.6,42.2,29.99,South,181,0.0,0.0,49,0.00,,,0.00,Wunderground v.1.15,2013-02-05 02:00:00,
2013-02-04 21:02:00,61.5,42.7,29.99,South,181,0.0,0.0,50,0.00,,,0.00,Wunderground v.1.15,2013-02-05 02:02:00,
2013-02-04 21:04:00,61.5,42.7,29.99,South,181,0.0,0.0,50,0.00,,,0.00,Wunderground v.1.15,2013-02-05 02:04:00,
2013-02-04 21:07:00,61.3,43.0,29.99,South,181,0.0,0.0,51,0.00,,,0.00,Wunderground v.1.15,2013-02-05 02:07:00,
2013-02-04 21:11:00,61.3,45.0,29.99,South,181,0.0,0.0,55,0.00,,,0.00,Wunderground v.1.15,2013-02-05 02:11:00,
2013-02-04 21:12:00,61.3,45.0,29.99,South,181,0.0,0.0,55,0.00,,,0.00,Wunderground v.1.15,2013-02-05 02:12:00,
2013-02-04 21:15:00,61.3,45.5,29.99,South,181,0.0,0.0,56,0.00,,,0.00,Wunderground v.1.15,2013-02-05 02:15:00,
2013-02-04 21:16:00,61.3,45.9,29.99,South,181,0.0,0.0,57,0.00,,,0.00,Wunderground v.1.15,2013-02-05 02:16:00,
2013-02-04 21:20:00,61.3,47.3,29.99,South,181,0.0,0.0,60,0.00,,,0.00,Wunderground v.1.15,2013-02-05 02:20:00,
2013-02-04 21:21:00,61.3,47.3,29.99,South,181,0.0,0.0,60,0.00,,,0.00,Wunderground v.1.15,2013-02-05 02:21:00,
2013-02-04 21:22:00,61.3,47.7,29.99,South,181,0.0,0.0,61,0.00,,,0.00,Wunderground v.1.15,2013-02-05 02:22:00,
2013-02-04 21:26:00,61.2,47.6,29.99,South,181,0.0,0.0,61,0.00,,,0.00,Wunderground v.1.15,2013-02-05 02:26:00,
2013-02-04 21:27:00,61.2,47.6,29.99,South,181,0.0,0.0,61,0.00,,,0.00,Wunderground v.1.15,2013-02-05 02:27:00,
2013-02-04 21:28:00,61.0,47.4,29.99,South,181,0.0,0.0,61,0.00,,,0.00,Wunderground v.1.15,2013-02-05 02:28:00,
2013-02-04 21:29:00,61.0,47.0,29.99,South,181,0.0,0.0,60,0.00,,,0.00,Wunderground v.1.15,2013-02-05 02:29:00,
2013-02-04 21:33:00,60.9,46.5,29.99,South,181,0.0,0.0,59,0.00,,,0.00,Wunderground v.1.15,2013-02-05 02:33:00,
2013-02-04 21:34:00,60.9,46.5,29.99,South,181,0.0,0.0,59,0.00,,,0.00,Wunderground v.1.15,2013-02-05 02:34:00,
2013-02-04 21:35:00,60.9,46.5,29.99,South,181,0.0,0.0,59,0.00,,,0.00,Wunderground v.1.15,2013-02-05 02:35:00,
2013-02-04 21:39:00,60.7,46.7,29.99,South,181,0.0,0.0,60,0.00,,,0.00,Wunderground v.1.15,2013-02-05 02:39:00,
2013-02-04 21:41:00,60.7,46.7,29.99,South,181,0.0,0.0,60,0.00,,,0.00,Wunderground v.1.15,2013-02-05 02:41:00,
2013-02-04 21:42:00,60.7,46.7,29.99,South,181,0.0,0.0,60,0.00,,,0.00,Wunderground v.1.15,2013-02-05 02:42:00,
2013-02-04 21:43:00,60.5,46.5,29.99,South,181,0.0,0.0,60,0.00,,,0.00,Wunderground v.1.15,2013-02-05 02:43:00,
2013-02-04 21:45:00,60.5,46.5,29.99,South,181,0.0,0.0,60,0.00,,,0.00,Wunderground v.1.15,2013-02-05 02:45:00,
2013-02-04 21:47:00,60.5,47.0,29.99,South,181,0.0,0.0,61,0.00,,,0.00,Wunderground v.1.15,2013-02-05 02:47:00,
2013-02-04 21:48:00,60.5,47.4,29.99,South,181,0.0,0.0,62,0.00,,,0.00,Wunderground v.1.15,2013-02-05 02:48:00,
2013-02-04 21:49:00,60.5,47.0,29.99,South,181,0.0,0.0,61,0.00,,,0.00,Wunderground v.1.15,2013-02-05 02:49:00,
2013-02-04 21:52:00,60.5,47.0,29.99,South,181,0.0,0.0,61,0.00,,,0.00,Wunderground v.1.15,2013-02-05 02:52:00,
2013-02-04 21:55:00,60.4,46.9,29.99,South,181,0.0,0.0,61,0.00,,,0.00,Wunderground v.1.15,2013-02-05 02:55:00,
2013-02-04 21:59:00,60.2,47.1,29.99,South,181,0.0,0.0,62,0.00,,,0.00,Wunderground v.1.15,2013-02-05 02:59:00,
2013-02-04 22:01:00,60.2,47.6,29.99,South,181,0.0,0.0,63,0.00,,,0.00,Wunderground v.1.15,2013-02-05 03:01:00,
2013-02-04 22:02:00,60.2,47.6,29.99,South,181,0.0,0.0,63,0.00,,,0.00,Wunderground v.1.15,2013-02-05 03:02:00,
2013-02-04 22:06:00,60.1,47.5,29.99,South,181,0.0,0.0,63,0.00,,,0.00,Wunderground v.1.15,2013-02-05 03:06:00,
2013-02-04 22:08:00,60.1,47.5,29.99,South,181,0.0,0.0,63,0.00,,,0.00,Wunderground v.1.15,2013-02-05 03:08:00,
2013-02-04 22:09:00,59.9,47.3,29.99,South,181,0.0,0.0,63,0.00,,,0.00,Wunderground v.1.15,2013-02-05 03:09:00,
2013-02-04 22:12:00,59.9,48.1,29.99,South,181,0.0,0.0,65,0.00,,,0.00,Wunderground v.1.15,2013-02-05 03:12:00,
2013-02-04 22:14:00,59.9,48.1,29.99,South,181,0.0,0.0,65,0.00,,,0.00,Wunderground v.1.15,2013-02-05 03:14:00,
2013-02-04 22:19:00,59.6,47.8,29.99,South,181,0.0,0.0,65,0.00,,,0.00,Wunderground v.1.15,2013-02-05 03:19:00,
2013-02-04 22:20:00,59.6,47.8,29.99,South,181,0.0,0.0,65,0.00,,,0.00,Wunderground v.1.15,2013-02-05 03:20:00,
2013-02-04 22:21:00,59.6,47.8,29.99,South,181,0.0,0.0,65,0.00,,,0.00,Wunderground v.1.15,2013-02-05 03:21:00,
2013-02-04 22:24:00,59.5,48.5,29.99,South,181,0.0,0.0,67,0.00,,,0.00,Wunderground v.1.15,2013-02-05 03:24:00,
2013-02-04 22:26:00,59.5,48.5,29.99,South,181,0.0,0.0,67,0.00,,,0.00,Wunderground v.1.15,2013-02-05 03:26:00,
2013-02-04 22:27:00,59.5,48.5,29.99,South,181,0.0,0.0,67,0.00,,,0.00,Wunderground v.1.15,2013-02-05 03:27:00,
2013-02-04 22:28:00,59.5,48.5,29.99,South,181,0.0,0.0,67,0.00,,,0.00,Wunderground v.1.15,2013-02-05 03:28:00,
2013-02-04 22:32:00,59.5,48.5,29.99,South,181,0.0,0.0,67,0.00,,,0.00,Wunderground v.1.15,2013-02-05 03:32:00,
2013-02-04 22:33:00,59.3,48.3,29.99,South,181,0.0,0.0,67,0.00,,,0.00,Wunderground v.1.15,2013-02-05 03:33:00,
2013-02-04 22:34:00,59.3,48.3,29.99,South,181,0.0,0.0,67,0.00,,,0.00,Wunderground v.1.15,2013-02-05 03:34:00,
2013-02-04 22:38:00,59.3,48.3,29.99,South,181,0.0,0.0,67,0.00,,,0.00,Wunderground v.1.15,2013-02-05 03:38:00,
2013-02-04 22:39:00,59.3,48.3,29.99,South,181,0.0,0.0,67,0.00,,,0.00,Wunderground v.1.15,2013-02-05 03:39:00,
2013-02-04 22:41:00,59.2,48.2,29.99,South,181,0.0,0.0,67,0.00,,,0.00,Wunderground v.1.15,2013-02-05 03:41:00,
2013-02-04 22:43:00,59.2,48.2,29.99,South,181,0.0,0.0,67,0.00,,,0.00,Wunderground v.1.15,2013-02-05 03:43:00,
2013-02-04 22:44:00,59.2,48.2,29.99,South,181,0.0,0.0,67,0.00,,,0.00,Wunderground v.1.15,2013-02-05 03:44:00,
2013-02-04 22:46:00,59.2,52.3,29.99,South,181,0.0,0.0,78,0.00,,,0.00,Wunderground v.1.15,2013-02-05 03:46:00,
2013-02-04 22:49:00,59.2,53.0,29.99,South,181,0.0,0.0,80,0.00,,,0.00,Wunderground v.1.15,2013-02-05 03:49:00,
2013-02-04 22:50:00,59.0,52.8,29.99,South,181,0.0,0.0,80,0.00,,,0.00,Wunderground v.1.15,2013-02-05 03:50:00,
2013-02-04 22:52:00,59.0,53.2,29.99,South,181,0.0,0.0,81,0.00,,,0.00,Wunderground v.1.15,2013-02-05 03:52:00,
2013-02-04 22:55:00,59.0,53.2,29.99,South,181,0.0,0.0,81,0.00,,,0.00,Wunderground v.1.15,2013-02-05 03:55:00,
2013-02-04 22:59:00,59.0,53.2,29.99,South,181,0.0,0.0,81,0.00,,,0.00,Wunderground v.1.15,2013-02-05 03:59:00,
2013-02-04 23:00:00,59.0,53.2,29.99,South,181,0.0,0.0,81,0.00,,,0.00,Wunderground v.1.15,2013-02-05 04:00:00,
2013-02-04 23:01:00,59.0,53.2,29.99,South,181,0.0,0.0,81,0.00,,,0.00,Wunderground v.1.15,2013-02-05 04:01:00,
2013-02-04 23:05:00,58.9,53.1,29.99,South,181,0.0,0.0,81,0.00,,,0.00,Wunderground v.1.15,2013-02-05 04:05:00,
2013-02-04 23:07:00,58.7,52.9,29.99,South,181,0.0,0.0,81,0.00,,,0.00,Wunderground v.1.15,2013-02-05 04:07:00,
2013-02-04 23:08:00,58.7,52.9,29.99,South,181,0.0,0.0,81,0.00,,,0.00,Wunderground v.1.15,2013-02-05 04:08:00,
2013-02-04 23:09:00,58.7,52.9,29.99,South,181,0.0,0.0,81,0.00,,,0.00,Wunderground v.1.15,2013-02-05 04:09:00,
2013-02-04 23:12:00,58.7,52.9,29.99,South,181,0.0,0.0,81,0.00,,,0.00,Wunderground v.1.15,2013-02-05 04:12:00,
2013-02-04 23:15:00,58.7,52.9,29.99,South,181,0.0,0.0,81,0.00,,,0.00,Wunderground v.1.15,2013-02-05 04:15:00,
2013-02-04 23:16:00,58.6,52.8,29.99,South,181,0.0,0.0,81,0.00,,,0.00,Wunderground v.1.15,2013-02-05 04:16:00,
2013-02-04 23:18:00,58.6,52.8,29.99,South,181,0.0,0.0,81,0.00,,,0.00,Wunderground v.1.15,2013-02-05 04:18:00,
2013-02-04 23:19:00,58.6,52.8,29.99,South,181,0.0,0.0,81,0.00,,,0.00,Wunderground v.1.15,2013-02-05 04:19:00,
2013-02-04 23:22:00,58.4,52.6,29.99,South,181,0.0,0.0,81,0.00,,,0.00,Wunderground v.1.15,2013-02-05 04:22:00,
2013-02-04 23:24:00,58.4,52.6,29.99,South,181,0.0,0.0,81,0.00,,,0.00,Wunderground v.1.15,2013-02-05 04:24:00,
2013-02-04 23:27:00,58.3,52.5,29.99,South,181,0.0,0.0,81,0.00,,,0.00,Wunderground v.1.15,2013-02-05 04:27:00,
2013-02-04 23:30:00,58.3,52.5,29.99,South,181,0.0,0.0,81,0.00,,,0.00,Wunderground v.1.15,2013-02-05 04:30:00,
2013-02-04 23:32:00,58.4,52.6,29.99,South,181,0.0,0.0,81,0.00,,,0.00,Wunderground v.1.15,2013-02-05 04:32:00,
2013-02-04 23:35:00,58.3,52.5,29.99,South,181,0.0,0.0,81,0.00,,,0.00,Wunderground v.1.15,2013-02-05 04:35:00,
2013-02-04 23:37:00,58.3,52.5,29.99,South,181,0.0,0.0,81,0.00,,,0.00,Wunderground v.1.15,2013-02-05 04:37:00,
2013-02-04 23:38:00,58.3,52.5,29.99,South,181,0.0,0.0,81,0.00,,,0.00,Wunderground v.1.15,2013-02-05 04:38:00,
2013-02-04 23:42:00,58.1,52.3,29.99,South,181,0.0,0.0,81,0.00,,,0.00,Wunderground v.1.15,2013-02-05 04:42:00,
2013-02-04 23:43:00,58.1,52.3,29.99,South,181,0.0,0.0,81,0.00,,,0.00,Wunderground v.1.15,2013-02-05 04:43:00,
2013-02-04 23:44:00,58.1,52.3,29.99,South,181,0.0,0.0,81,0.00,,,0.00,Wunderground v.1.15,2013-02-05 04:44:00,
2013-02-04 23:46:00,58.1,52.3,29.99,South,181,0.0,0.0,81,0.00,,,0.00,Wunderground v.1.15,2013-02-05 04:46:00,
2013-02-04 23:47:00,58.1,52.3,29.99,South,181,0.0,0.0,81,0.00,,,0.00,Wunderground v.1.15,2013-02-05 04:47:00,
2013-02-04 23:52:00,58.1,52.3,29.99,South,181,0.0,0.0,81,0.00,,,0.00,Wunderground v.1.15,2013-02-05 04:52:00,
2013-02-04 23:53:00,58.1,52.3,29.99,South,181,0.0,0.0,81,0.00,,,0.00,Wunderground v.1.15,2013-02-05 04:53:00,
2013-02-04 23:55:00,58.1,52.3,29.99,South,181,0.0,0.0,81,0.00,,,0.00,Wunderground v.1.15,2013-02-05 04:55:00,
2013-02-04 23:57:00,58.1,52.3,29.99,South,181,0.0,0.0,81,0.00,,,0.00,Wunderground v.1.15,2013-02-05 04:57:00,
2013-02-04 23:59:00,58.1,52.3,29.99,South,181,0.0,0.0,81,0.00,,,0.00,Wunderground v.1.15,2013-02-05 04:59:00,